SJX2187 CYYC-LOWW
Flight info
| Callsign | SJX2187 |
|---|---|
| Flight time | 9h 40m |
| Altitude | 40000 |
| Route | STAMP2/35R LOMLO DCT POLLE DCT 5990N DCT 6180N DCT DAXER DCT FEDDY DCT IKMAN/M085F370 DCT EMBOK DCT 6450N DCT 6440N DCT 6330N DCT 6320N DCT 6315N DCT 6210N DCT GUNPA/N0483F370 DCT RAMUD DCT BEVRA DCT PIZID DCT GESTO DCT ZUCKA DCT SODRO DCT ARMUT DCT DEXIT DCT VENEN |
| Aircraft | A359/H-SDE2E3GHIJ3J4J5LM1ORWXY/LB1D1 |
Departure
| Time | 2026-04-25 13:07 |
|---|---|
| Airport | Calgary International Airport (CYYC) |
Arrival
| Time | 2026-04-25 22:47 |
|---|---|
| Airport | Vienna International Airport (LOWW) |
| Time | Latitude | Longitude | Altitude | Speed | Heading |
|---|---|---|---|---|---|
| 2026-04-25 12:23 | 51.13108 | -113.99706 | 3564 ft | 0 kts | 187° |
| 2026-04-25 12:51 | 51.13112 | -113.99705 | 3555 ft | 2 kts | 187° |
| 2026-04-25 12:51 | 51.13130 | -113.99701 | 3555 ft | 3 kts | 179° |
| 2026-04-25 12:52 | 51.13149 | -113.99707 | 3556 ft | 3 kts | 140° |
| 2026-04-25 12:52 | 51.13161 | -113.99731 | 3558 ft | 3 kts | 100° |
| 2026-04-25 12:52 | 51.13162 | -113.99737 | 3558 ft | 0 kts | 91° |
| 2026-04-25 12:56 | 51.13162 | -113.99734 | 3564 ft | 3 kts | 91° |
| 2026-04-25 12:56 | 51.13162 | -113.99661 | 3559 ft | 6 kts | 89° |
| 2026-04-25 12:56 | 51.13162 | -113.99608 | 3559 ft | 3 kts | 89° |
| 2026-04-25 12:57 | 51.13162 | -113.99591 | 3565 ft | 0 kts | 89° |
| 2026-04-25 12:57 | 51.13163 | -113.99564 | 3562 ft | 6 kts | 89° |
| 2026-04-25 12:57 | 51.13158 | -113.99511 | 3561 ft | 4 kts | 107° |
| 2026-04-25 12:57 | 51.13143 | -113.99475 | 3559 ft | 10 kts | 133° |
| 2026-04-25 12:58 | 51.13064 | -113.99444 | 3559 ft | 11 kts | 178° |
| 2026-04-25 12:58 | 51.12997 | -113.99442 | 3562 ft | 8 kts | 180° |
| 2026-04-25 12:58 | 51.12946 | -113.99443 | 3557 ft | 6 kts | 181° |
| 2026-04-25 12:58 | 51.12910 | -113.99444 | 3561 ft | 4 kts | 181° |
| 2026-04-25 12:59 | 51.12869 | -113.99443 | 3556 ft | 12 kts | 179° |
| 2026-04-25 12:59 | 51.12787 | -113.99442 | 3557 ft | 11 kts | 179° |
| 2026-04-25 12:59 | 51.12715 | -113.99444 | 3556 ft | 9 kts | 179° |
| 2026-04-25 12:59 | 51.12631 | -113.99443 | 3555 ft | 12 kts | 179° |
| 2026-04-25 13:00 | 51.12549 | -113.99442 | 3558 ft | 11 kts | 180° |
| 2026-04-25 13:00 | 51.12525 | -113.99442 | 3556 ft | 10 kts | 180° |
| 2026-04-25 13:00 | 51.12405 | -113.99440 | 3557 ft | 10 kts | 178° |
| 2026-04-25 13:00 | 51.12329 | -113.99440 | 3556 ft | 11 kts | 179° |
| 2026-04-25 13:01 | 51.12253 | -113.99439 | 3555 ft | 11 kts | 179° |
| 2026-04-25 13:01 | 51.12178 | -113.99440 | 3557 ft | 11 kts | 181° |
| 2026-04-25 13:01 | 51.12086 | -113.99442 | 3557 ft | 13 kts | 180° |
| 2026-04-25 13:01 | 51.11998 | -113.99442 | 3554 ft | 12 kts | 180° |
| 2026-04-25 13:02 | 51.11915 | -113.99445 | 3556 ft | 12 kts | 181° |
| 2026-04-25 13:02 | 51.11835 | -113.99448 | 3554 ft | 11 kts | 181° |
| 2026-04-25 13:02 | 51.11759 | -113.99447 | 3555 ft | 13 kts | 179° |
| 2026-04-25 13:02 | 51.11667 | -113.99445 | 3553 ft | 13 kts | 179° |
| 2026-04-25 13:03 | 51.11581 | -113.99445 | 3554 ft | 12 kts | 180° |
| 2026-04-25 13:03 | 51.11501 | -113.99448 | 3553 ft | 11 kts | 181° |
| 2026-04-25 13:03 | 51.11425 | -113.99448 | 3552 ft | 11 kts | 180° |
| 2026-04-25 13:03 | 51.11344 | -113.99447 | 3552 ft | 16 kts | 179° |
| 2026-04-25 13:04 | 51.11228 | -113.99445 | 3550 ft | 16 kts | 180° |
| 2026-04-25 13:04 | 51.11116 | -113.99446 | 3548 ft | 16 kts | 180° |
| 2026-04-25 13:04 | 51.11042 | -113.99358 | 3544 ft | 14 kts | 101° |
| 2026-04-25 13:04 | 51.11035 | -113.99197 | 3545 ft | 15 kts | 91° |
| 2026-04-25 13:05 | 51.11061 | -113.99062 | 3541 ft | 11 kts | 33° |
| 2026-04-25 13:05 | 51.11123 | -113.99043 | 3544 ft | 7 kts | 0° |
| 2026-04-25 13:05 | 51.11125 | -113.99043 | 3545 ft | 0 kts | 0° |
| 2026-04-25 13:06 | 51.11126 | -113.99043 | 3544 ft | 3 kts | 0° |
| 2026-04-25 13:06 | 51.11361 | -113.99040 | 3546 ft | 67 kts | 0° |
| 2026-04-25 13:07 | 51.12036 | -113.99039 | 3554 ft | 126 kts | 360° |
| 2026-04-25 13:07 | 51.13071 | -113.99057 | 3627 ft | 171 kts | 358° |
| 2026-04-25 13:07 | 51.14306 | -113.99138 | 4384 ft | 169 kts | 356° |
| 2026-04-25 13:07 | 51.15455 | -113.99244 | 5397 ft | 167 kts | 356° |
| 2026-04-25 13:08 | 51.16660 | -113.99343 | 5718 ft | 182 kts | 355° |
| 2026-04-25 13:08 | 51.18001 | -113.99442 | 5899 ft | 205 kts | 355° |
| 2026-04-25 13:08 | 51.19495 | -113.99543 | 6176 ft | 224 kts | 356° |
| 2026-04-25 13:08 | 51.21092 | -113.99642 | 6654 ft | 234 kts | 355° |
| 2026-04-25 13:09 | 51.22733 | -113.99548 | 7007 ft | 240 kts | 9° |
| 2026-04-25 13:09 | 51.24230 | -113.98287 | 7400 ft | 253 kts | 37° |
| 2026-04-25 13:09 | 51.25216 | -113.95889 | 7873 ft | 270 kts | 64° |
| 2026-04-25 13:09 | 51.25437 | -113.92844 | 8424 ft | 287 kts | 90° |
| 2026-04-25 13:10 | 51.24981 | -113.89680 | 8972 ft | 297 kts | 102° |
| 2026-04-25 13:10 | 51.24339 | -113.86517 | 9542 ft | 302 kts | 103° |
| 2026-04-25 13:10 | 51.23670 | -113.83317 | 10086 ft | 306 kts | 103° |
| 2026-04-25 13:10 | 51.22990 | -113.80056 | 10598 ft | 313 kts | 103° |
| 2026-04-25 13:11 | 51.22119 | -113.76811 | 11114 ft | 323 kts | 113° |
| 2026-04-25 13:11 | 51.21042 | -113.73660 | 11632 ft | 320 kts | 116° |
| 2026-04-25 13:11 | 51.20289 | -113.71649 | 11978 ft | 317 kts | 118° |
| 2026-04-25 13:11 | 51.19120 | -113.68681 | 12537 ft | 316 kts | 119° |
| 2026-04-25 13:12 | 51.17536 | -113.64788 | 13283 ft | 316 kts | 120° |
| 2026-04-25 13:12 | 51.16335 | -113.61852 | 13830 ft | 317 kts | 120° |
| 2026-04-25 13:12 | 51.15135 | -113.58909 | 14342 ft | 317 kts | 120° |
| 2026-04-25 13:12 | 51.14729 | -113.57910 | 14506 ft | 318 kts | 120° |
| 2026-04-25 13:13 | 51.13122 | -113.53936 | 15184 ft | 320 kts | 120° |
| 2026-04-25 13:13 | 51.12025 | -113.50863 | 15685 ft | 320 kts | 114° |
| 2026-04-25 13:13 | 51.11022 | -113.47691 | 16218 ft | 321 kts | 112° |
| 2026-04-25 13:13 | 51.10140 | -113.44474 | 16743 ft | 322 kts | 107° |
| 2026-04-25 13:14 | 51.09513 | -113.41020 | 17296 ft | 320 kts | 98° |
| 2026-04-25 13:14 | 51.09319 | -113.37563 | 17813 ft | 317 kts | 85° |
| 2026-04-25 13:14 | 51.09766 | -113.34194 | 18370 ft | 310 kts | 67° |
| 2026-04-25 13:14 | 51.10609 | -113.31063 | 18863 ft | 306 kts | 58° |
| 2026-04-25 13:15 | 51.11683 | -113.28158 | 19355 ft | 303 kts | 53° |
| 2026-04-25 13:15 | 51.12886 | -113.25421 | 19852 ft | 300 kts | 50° |
| 2026-04-25 13:15 | 51.14142 | -113.22783 | 20358 ft | 299 kts | 49° |
| 2026-04-25 13:15 | 51.15419 | -113.20163 | 20761 ft | 301 kts | 48° |
| 2026-04-25 13:16 | 51.16723 | -113.17484 | 20947 ft | 312 kts | 49° |
| 2026-04-25 13:16 | 51.18058 | -113.14694 | 21151 ft | 321 kts | 49° |
| 2026-04-25 13:16 | 51.19395 | -113.11847 | 21643 ft | 319 kts | 50° |
| 2026-04-25 13:16 | 51.20704 | -113.09013 | 22307 ft | 313 kts | 50° |
| 2026-04-25 13:17 | 51.21975 | -113.06237 | 22991 ft | 306 kts | 50° |
| 2026-04-25 13:17 | 51.23208 | -113.03532 | 23668 ft | 297 kts | 50° |
| 2026-04-25 13:17 | 51.24401 | -113.00914 | 24282 ft | 286 kts | 50° |
| 2026-04-25 13:17 | 51.25563 | -112.98365 | 24734 ft | 282 kts | 49° |
| 2026-04-25 13:18 | 51.26717 | -112.95840 | 25094 ft | 280 kts | 49° |
| 2026-04-25 13:18 | 51.27854 | -112.93356 | 25458 ft | 277 kts | 49° |
| 2026-04-25 13:18 | 51.28992 | -112.90868 | 25845 ft | 275 kts | 49° |
| 2026-04-25 13:18 | 51.30111 | -112.88418 | 26222 ft | 271 kts | 48° |
| 2026-04-25 13:19 | 51.31214 | -112.85999 | 26584 ft | 268 kts | 48° |
| 2026-04-25 13:19 | 51.32320 | -112.83577 | 26738 ft | 272 kts | 48° |
| 2026-04-25 13:19 | 51.33449 | -112.81109 | 26836 ft | 278 kts | 48° |
| 2026-04-25 13:19 | 51.34209 | -112.79446 | 26900 ft | 282 kts | 48° |
| 2026-04-25 13:20 | 51.35780 | -112.76001 | 27040 ft | 291 kts | 49° |
| 2026-04-25 13:20 | 51.36984 | -112.73355 | 27147 ft | 298 kts | 49° |
| 2026-04-25 13:20 | 51.38214 | -112.70645 | 27275 ft | 305 kts | 49° |
| 2026-04-25 13:20 | 51.39476 | -112.67859 | 27413 ft | 313 kts | 49° |
| 2026-04-25 13:21 | 51.40767 | -112.65007 | 27558 ft | 320 kts | 49° |
| 2026-04-25 13:21 | 51.42089 | -112.62080 | 27705 ft | 328 kts | 49° |
| 2026-04-25 13:21 | 51.43442 | -112.59081 | 27909 ft | 335 kts | 49° |
| 2026-04-25 13:21 | 51.44807 | -112.56052 | 28073 ft | 343 kts | 49° |
| 2026-04-25 13:22 | 51.46234 | -112.52881 | 28233 ft | 350 kts | 49° |
| 2026-04-25 13:22 | 51.47659 | -112.49716 | 28385 ft | 358 kts | 49° |
| 2026-04-25 13:22 | 51.49131 | -112.46438 | 28543 ft | 366 kts | 49° |
| 2026-04-25 13:23 | 51.52164 | -112.39671 | 28876 ft | 381 kts | 49° |
| 2026-04-25 13:23 | 51.53729 | -112.36173 | 29053 ft | 389 kts | 49° |
| 2026-04-25 13:23 | 51.55318 | -112.32615 | 29221 ft | 396 kts | 49° |
| 2026-04-25 13:23 | 51.56939 | -112.28978 | 29401 ft | 403 kts | 50° |
| 2026-04-25 13:24 | 51.58585 | -112.25283 | 29572 ft | 410 kts | 50° |
| 2026-04-25 13:24 | 51.60258 | -112.21521 | 29789 ft | 417 kts | 49° |
| 2026-04-25 13:24 | 51.61960 | -112.17689 | 29954 ft | 424 kts | 49° |
| 2026-04-25 13:24 | 51.63687 | -112.13798 | 30123 ft | 430 kts | 50° |
| 2026-04-25 13:25 | 51.65435 | -112.09847 | 30283 ft | 436 kts | 50° |
| 2026-04-25 13:25 | 51.67205 | -112.05841 | 30434 ft | 441 kts | 50° |
| 2026-04-25 13:25 | 51.68993 | -112.01787 | 30631 ft | 446 kts | 50° |
| 2026-04-25 13:25 | 51.70791 | -111.97701 | 30890 ft | 448 kts | 50° |
| 2026-04-25 13:26 | 51.72595 | -111.93598 | 31159 ft | 449 kts | 50° |
| 2026-04-25 13:26 | 51.74407 | -111.89469 | 31407 ft | 452 kts | 50° |
| 2026-04-25 13:26 | 51.76229 | -111.85312 | 31701 ft | 454 kts | 50° |
| 2026-04-25 13:26 | 51.78057 | -111.81138 | 31890 ft | 457 kts | 50° |
| 2026-04-25 13:27 | 51.79893 | -111.76938 | 32100 ft | 459 kts | 51° |
| 2026-04-25 13:27 | 51.81737 | -111.72714 | 32369 ft | 460 kts | 51° |
| 2026-04-25 13:27 | 51.83583 | -111.68477 | 32612 ft | 462 kts | 51° |
| 2026-04-25 13:27 | 51.85435 | -111.64219 | 32850 ft | 464 kts | 51° |
| 2026-04-25 13:28 | 51.87291 | -111.59945 | 33091 ft | 465 kts | 51° |
| 2026-04-25 13:28 | 51.88522 | -111.57107 | 33244 ft | 466 kts | 51° |
| 2026-04-25 13:28 | 51.90994 | -111.51399 | 33547 ft | 468 kts | 51° |
| 2026-04-25 13:28 | 51.92867 | -111.47065 | 33795 ft | 470 kts | 52° |
| 2026-04-25 13:29 | 51.94738 | -111.42726 | 34054 ft | 471 kts | 52° |
| 2026-04-25 13:29 | 51.96617 | -111.38364 | 34239 ft | 472 kts | 52° |
| 2026-04-25 13:29 | 51.98498 | -111.33989 | 34426 ft | 473 kts | 52° |
| 2026-04-25 13:30 | 52.02260 | -111.25217 | 34828 ft | 474 kts | 52° |
| 2026-04-25 13:30 | 52.04144 | -111.20812 | 34994 ft | 475 kts | 52° |
| 2026-04-25 13:30 | 52.06026 | -111.16405 | 35184 ft | 475 kts | 52° |
| 2026-04-25 13:31 | 52.09798 | -111.07550 | 35580 ft | 475 kts | 53° |
| 2026-04-25 13:31 | 52.11679 | -111.03123 | 35778 ft | 476 kts | 53° |
| 2026-04-25 13:31 | 52.13564 | -110.98678 | 35890 ft | 478 kts | 53° |
| 2026-04-25 13:31 | 52.15449 | -110.94225 | 36043 ft | 479 kts | 53° |
| 2026-04-25 13:32 | 52.17339 | -110.89753 | 36202 ft | 479 kts | 53° |
| 2026-04-25 13:32 | 52.19229 | -110.85274 | 36353 ft | 480 kts | 53° |
| 2026-04-25 13:32 | 52.21098 | -110.80837 | 36516 ft | 480 kts | 53° |
| 2026-04-25 13:32 | 52.22989 | -110.76339 | 36647 ft | 481 kts | 54° |
| 2026-04-25 13:33 | 52.24882 | -110.71828 | 36796 ft | 481 kts | 54° |
| 2026-04-25 13:33 | 52.26773 | -110.67314 | 36955 ft | 482 kts | 54° |
| 2026-04-25 13:33 | 52.28664 | -110.62792 | 37073 ft | 482 kts | 54° |
| 2026-04-25 13:34 | 52.32446 | -110.53726 | 37328 ft | 483 kts | 54° |
| 2026-04-25 13:34 | 52.34340 | -110.49173 | 37465 ft | 483 kts | 54° |
| 2026-04-25 13:34 | 52.36230 | -110.44623 | 37597 ft | 483 kts | 54° |
| 2026-04-25 13:34 | 52.38096 | -110.40122 | 37706 ft | 483 kts | 54° |
| 2026-04-25 13:35 | 52.39982 | -110.35564 | 37834 ft | 484 kts | 54° |
| 2026-04-25 13:35 | 52.43758 | -110.26413 | 38050 ft | 484 kts | 55° |
| 2026-04-25 13:35 | 52.45643 | -110.21830 | 38217 ft | 483 kts | 55° |
| 2026-04-25 13:36 | 52.47521 | -110.17258 | 38332 ft | 483 kts | 55° |
| 2026-04-25 13:36 | 52.51258 | -110.08139 | 38492 ft | 484 kts | 55° |
| 2026-04-25 13:36 | 52.53133 | -110.03553 | 38609 ft | 483 kts | 55° |
| 2026-04-25 13:37 | 52.55009 | -109.98957 | 38771 ft | 481 kts | 55° |
| 2026-04-25 13:37 | 52.56871 | -109.94385 | 38885 ft | 480 kts | 55° |
| 2026-04-25 13:37 | 52.58708 | -109.89864 | 38907 ft | 481 kts | 55° |
| 2026-04-25 13:38 | 52.62433 | -109.80674 | 38996 ft | 482 kts | 55° |
| 2026-04-25 13:38 | 52.66158 | -109.71448 | 39125 ft | 482 kts | 56° |
| 2026-04-25 13:39 | 52.69843 | -109.62288 | 39264 ft | 481 kts | 56° |
| 2026-04-25 13:39 | 52.73536 | -109.53075 | 39352 ft | 481 kts | 56° |
| 2026-04-25 13:40 | 52.77229 | -109.43841 | 39398 ft | 483 kts | 56° |
| 2026-04-25 13:40 | 52.80918 | -109.34574 | 39536 ft | 482 kts | 56° |
| 2026-04-25 13:41 | 52.84597 | -109.25294 | 39607 ft | 482 kts | 56° |
| 2026-04-25 13:41 | 52.88266 | -109.16004 | 39728 ft | 482 kts | 56° |
| 2026-04-25 13:42 | 52.91928 | -109.06700 | 39813 ft | 482 kts | 56° |
| 2026-04-25 13:42 | 52.95567 | -108.97428 | 39833 ft | 483 kts | 56° |
| 2026-04-25 13:43 | 52.99229 | -108.88064 | 39894 ft | 483 kts | 56° |
| 2026-04-25 13:43 | 53.02875 | -108.78700 | 39984 ft | 482 kts | 57° |
| 2026-04-25 13:44 | 53.06510 | -108.69327 | 40074 ft | 482 kts | 57° |
| 2026-04-25 13:44 | 53.10136 | -108.59945 | 40126 ft | 482 kts | 57° |
| 2026-04-25 13:45 | 53.13148 | -108.52123 | 40144 ft | 483 kts | 57° |
| 2026-04-25 13:45 | 53.17379 | -108.41100 | 40194 ft | 483 kts | 57° |
| 2026-04-25 13:46 | 53.20987 | -108.31661 | 40255 ft | 483 kts | 57° |
| 2026-04-25 13:46 | 53.24574 | -108.22241 | 40317 ft | 482 kts | 57° |
| 2026-04-25 13:47 | 53.28172 | -108.12754 | 40298 ft | 484 kts | 57° |
| 2026-04-25 13:47 | 53.31774 | -108.03222 | 40323 ft | 484 kts | 57° |
| 2026-04-25 13:48 | 53.35354 | -107.93714 | 40359 ft | 484 kts | 58° |
| 2026-04-25 13:48 | 53.38942 | -107.84147 | 40378 ft | 485 kts | 58° |
| 2026-04-25 13:49 | 53.42517 | -107.74578 | 40423 ft | 485 kts | 58° |
| 2026-04-25 13:49 | 53.46091 | -107.64974 | 40439 ft | 485 kts | 58° |
| 2026-04-25 13:50 | 53.49659 | -107.55352 | 40451 ft | 486 kts | 58° |
| 2026-04-25 13:50 | 53.53225 | -107.45698 | 40462 ft | 486 kts | 58° |
| 2026-04-25 13:51 | 53.56782 | -107.36029 | 40486 ft | 486 kts | 58° |
| 2026-04-25 13:51 | 53.60329 | -107.26353 | 40551 ft | 485 kts | 59° |
| 2026-04-25 13:52 | 53.63842 | -107.16733 | 40604 ft | 485 kts | 59° |
| 2026-04-25 13:52 | 53.67373 | -107.07025 | 40578 ft | 486 kts | 59° |
| 2026-04-25 13:53 | 53.70901 | -106.97277 | 40541 ft | 487 kts | 59° |
| 2026-04-25 13:53 | 53.74424 | -106.87512 | 40619 ft | 486 kts | 59° |
| 2026-04-25 13:54 | 53.77936 | -106.77746 | 40639 ft | 486 kts | 59° |
| 2026-04-25 13:54 | 53.81437 | -106.67968 | 40668 ft | 486 kts | 60° |
| 2026-04-25 13:55 | 53.84930 | -106.58173 | 40680 ft | 486 kts | 60° |
| 2026-04-25 13:55 | 53.88419 | -106.48349 | 40659 ft | 487 kts | 60° |
| 2026-04-25 13:56 | 53.91908 | -106.38485 | 40605 ft | 488 kts | 60° |
| 2026-04-25 13:56 | 53.95392 | -106.28594 | 40659 ft | 488 kts | 60° |
| 2026-04-25 13:57 | 53.98864 | -106.18703 | 40672 ft | 487 kts | 60° |
| 2026-04-25 13:57 | 54.02326 | -106.08796 | 40726 ft | 487 kts | 60° |
| 2026-04-25 13:58 | 54.05201 | -106.00540 | 40736 ft | 487 kts | 60° |
| 2026-04-25 13:58 | 54.08655 | -105.90588 | 40657 ft | 489 kts | 61° |
| 2026-04-25 13:59 | 54.12105 | -105.80607 | 40717 ft | 488 kts | 61° |
| 2026-04-25 13:59 | 54.15542 | -105.70619 | 40741 ft | 488 kts | 61° |
| 2026-04-25 14:00 | 54.18395 | -105.62299 | 40760 ft | 488 kts | 61° |
| 2026-04-25 14:00 | 54.22374 | -105.50647 | 40749 ft | 489 kts | 61° |
| 2026-04-25 14:01 | 54.25787 | -105.40595 | 40758 ft | 489 kts | 61° |
| 2026-04-25 14:01 | 54.29195 | -105.30530 | 40789 ft | 488 kts | 61° |
| 2026-04-25 14:02 | 54.32588 | -105.20476 | 40814 ft | 488 kts | 62° |
| 2026-04-25 14:02 | 54.35988 | -105.10357 | 40714 ft | 491 kts | 62° |
| 2026-04-25 14:03 | 54.39390 | -105.00181 | 40620 ft | 493 kts | 62° |
| 2026-04-25 14:03 | 54.42795 | -104.89955 | 40627 ft | 493 kts | 62° |
| 2026-04-25 14:04 | 54.46191 | -104.79714 | 40657 ft | 493 kts | 62° |
| 2026-04-25 14:04 | 54.49561 | -104.69508 | 40666 ft | 493 kts | 62° |
| 2026-04-25 14:05 | 54.52937 | -104.59245 | 40693 ft | 492 kts | 62° |
| 2026-04-25 14:05 | 54.56300 | -104.48974 | 40730 ft | 492 kts | 62° |
| 2026-04-25 14:06 | 54.59653 | -104.38690 | 40748 ft | 492 kts | 62° |
| 2026-04-25 14:06 | 54.62994 | -104.28400 | 40777 ft | 492 kts | 62° |
| 2026-04-25 14:07 | 54.66326 | -104.18093 | 40787 ft | 492 kts | 62° |
| 2026-04-25 14:07 | 54.69654 | -104.07756 | 40768 ft | 492 kts | 63° |
| 2026-04-25 14:08 | 54.72970 | -103.97410 | 40872 ft | 490 kts | 63° |
| 2026-04-25 14:08 | 54.76262 | -103.87098 | 40920 ft | 489 kts | 63° |
| 2026-04-25 14:09 | 54.79938 | -103.77166 | 40924 ft | 491 kts | 58° |
| 2026-04-25 14:09 | 54.83812 | -103.67411 | 40915 ft | 491 kts | 57° |
| 2026-04-25 14:10 | 54.87712 | -103.57677 | 40924 ft | 491 kts | 57° |
| 2026-04-25 14:10 | 54.91600 | -103.47926 | 40924 ft | 491 kts | 57° |
| 2026-04-25 14:11 | 54.95476 | -103.38143 | 40935 ft | 491 kts | 57° |
| 2026-04-25 14:11 | 54.99343 | -103.28333 | 40932 ft | 491 kts | 58° |
| 2026-04-25 14:12 | 55.03199 | -103.18512 | 40932 ft | 491 kts | 58° |
| 2026-04-25 14:12 | 55.07026 | -103.08726 | 40939 ft | 491 kts | 58° |
| 2026-04-25 14:13 | 55.10871 | -102.98858 | 40942 ft | 491 kts | 58° |
| 2026-04-25 14:13 | 55.14697 | -102.88997 | 40946 ft | 489 kts | 58° |
| 2026-04-25 14:14 | 55.18504 | -102.79144 | 40950 ft | 489 kts | 58° |
| 2026-04-25 14:14 | 55.22309 | -102.69258 | 40948 ft | 489 kts | 58° |
| 2026-04-25 14:15 | 55.26109 | -102.59346 | 40958 ft | 490 kts | 59° |
| 2026-04-25 14:15 | 55.29904 | -102.49408 | 40961 ft | 490 kts | 59° |
| 2026-04-25 14:16 | 55.33690 | -102.39452 | 40968 ft | 490 kts | 59° |
| 2026-04-25 14:16 | 55.37466 | -102.29480 | 40966 ft | 490 kts | 59° |
| 2026-04-25 14:17 | 55.41239 | -102.19480 | 40978 ft | 490 kts | 59° |
| 2026-04-25 14:17 | 55.45001 | -102.09465 | 40977 ft | 491 kts | 59° |
| 2026-04-25 14:18 | 55.48762 | -101.99413 | 40983 ft | 491 kts | 59° |
| 2026-04-25 14:18 | 55.52518 | -101.89332 | 40985 ft | 492 kts | 59° |
| 2026-04-25 14:19 | 55.56265 | -101.79236 | 40991 ft | 492 kts | 59° |
| 2026-04-25 14:19 | 55.60004 | -101.69116 | 40994 ft | 492 kts | 60° |
| 2026-04-25 14:20 | 55.63736 | -101.58975 | 41000 ft | 492 kts | 60° |
| 2026-04-25 14:20 | 55.67446 | -101.48854 | 41008 ft | 493 kts | 60° |
| 2026-04-25 14:21 | 55.71173 | -101.38642 | 41009 ft | 493 kts | 60° |
| 2026-04-25 14:21 | 55.74892 | -101.28410 | 41009 ft | 493 kts | 60° |
| 2026-04-25 14:22 | 55.78606 | -101.18150 | 41011 ft | 494 kts | 60° |
| 2026-04-25 14:22 | 55.82310 | -101.07875 | 41015 ft | 494 kts | 60° |
| 2026-04-25 14:23 | 55.86005 | -100.97579 | 41023 ft | 493 kts | 60° |
| 2026-04-25 14:23 | 55.89687 | -100.87275 | 41025 ft | 493 kts | 60° |
| 2026-04-25 14:24 | 55.93353 | -100.76974 | 41027 ft | 493 kts | 61° |
| 2026-04-25 14:24 | 55.97016 | -100.66635 | 41041 ft | 493 kts | 61° |
| 2026-04-25 14:25 | 56.00669 | -100.56282 | 41039 ft | 493 kts | 61° |
| 2026-04-25 14:25 | 56.04315 | -100.45905 | 41047 ft | 493 kts | 61° |
| 2026-04-25 14:26 | 56.07950 | -100.35517 | 41044 ft | 493 kts | 61° |
| 2026-04-25 14:26 | 56.11577 | -100.25104 | 41055 ft | 492 kts | 61° |
| 2026-04-25 14:27 | 56.15194 | -100.14676 | 41062 ft | 493 kts | 62° |
| 2026-04-25 14:27 | 56.18808 | -100.04213 | 41058 ft | 493 kts | 62° |
| 2026-04-25 14:28 | 56.22408 | -99.93744 | 41072 ft | 492 kts | 62° |
| 2026-04-25 14:28 | 56.25999 | -99.83256 | 41092 ft | 492 kts | 62° |
| 2026-04-25 14:29 | 56.29576 | -99.72762 | 41084 ft | 492 kts | 62° |
| 2026-04-25 14:29 | 56.33148 | -99.62237 | 41096 ft | 493 kts | 62° |
| 2026-04-25 14:30 | 56.36718 | -99.51672 | 41094 ft | 493 kts | 63° |
| 2026-04-25 14:30 | 56.42043 | -99.35827 | 41115 ft | 493 kts | 63° |
| 2026-04-25 14:31 | 56.45593 | -99.25208 | 41103 ft | 493 kts | 63° |
| 2026-04-25 14:31 | 56.49131 | -99.14575 | 41119 ft | 494 kts | 63° |
| 2026-04-25 14:32 | 56.52668 | -99.03896 | 41135 ft | 494 kts | 63° |
| 2026-04-25 14:32 | 56.56192 | -98.93211 | 41137 ft | 494 kts | 63° |
| 2026-04-25 14:33 | 56.59708 | -98.82503 | 41144 ft | 494 kts | 63° |
| 2026-04-25 14:33 | 56.63213 | -98.71782 | 41122 ft | 493 kts | 63° |
| 2026-04-25 14:34 | 56.66702 | -98.61060 | 41161 ft | 492 kts | 63° |
| 2026-04-25 14:34 | 56.70174 | -98.50342 | 41160 ft | 491 kts | 64° |
| 2026-04-25 14:35 | 56.73631 | -98.39622 | 41170 ft | 491 kts | 64° |
| 2026-04-25 14:35 | 56.77082 | -98.28871 | 41164 ft | 491 kts | 64° |
| 2026-04-25 14:36 | 56.80524 | -98.18102 | 41167 ft | 491 kts | 64° |
| 2026-04-25 14:36 | 56.83953 | -98.07326 | 41187 ft | 490 kts | 64° |
| 2026-04-25 14:37 | 56.87365 | -97.96550 | 41191 ft | 490 kts | 64° |
| 2026-04-25 14:37 | 56.90743 | -97.85837 | 41193 ft | 489 kts | 64° |
| 2026-04-25 14:38 | 56.94133 | -97.75032 | 41204 ft | 489 kts | 64° |
| 2026-04-25 14:38 | 56.97513 | -97.64213 | 41187 ft | 489 kts | 65° |
| 2026-04-25 14:39 | 57.00878 | -97.53395 | 41206 ft | 486 kts | 65° |
| 2026-04-25 14:39 | 57.04211 | -97.42629 | 41206 ft | 485 kts | 65° |
| 2026-04-25 14:40 | 57.07533 | -97.31845 | 41219 ft | 485 kts | 65° |
| 2026-04-25 14:40 | 57.10843 | -97.21053 | 41219 ft | 485 kts | 65° |
| 2026-04-25 14:41 | 57.14147 | -97.10229 | 41199 ft | 485 kts | 65° |
| 2026-04-25 14:41 | 57.16883 | -97.01235 | 41222 ft | 483 kts | 65° |
| 2026-04-25 14:42 | 57.19602 | -96.92261 | 41220 ft | 482 kts | 66° |
| 2026-04-25 14:42 | 57.23407 | -96.79644 | 41233 ft | 481 kts | 66° |
| 2026-04-25 14:43 | 57.26652 | -96.68823 | 41233 ft | 481 kts | 66° |
| 2026-04-25 14:43 | 57.29885 | -96.57995 | 41235 ft | 481 kts | 66° |
| 2026-04-25 14:44 | 57.33108 | -96.47151 | 41247 ft | 481 kts | 66° |
| 2026-04-25 14:44 | 57.36330 | -96.36255 | 41246 ft | 483 kts | 66° |
| 2026-04-25 14:45 | 57.39551 | -96.25320 | 41248 ft | 483 kts | 66° |
| 2026-04-25 14:45 | 57.42761 | -96.14370 | 41248 ft | 483 kts | 66° |
| 2026-04-25 14:46 | 57.45941 | -96.03469 | 41256 ft | 483 kts | 66° |
| 2026-04-25 14:46 | 57.49128 | -95.92490 | 41248 ft | 483 kts | 66° |
| 2026-04-25 14:47 | 57.51796 | -95.83257 | 41246 ft | 484 kts | 66° |
| 2026-04-25 14:47 | 57.55490 | -95.70419 | 41248 ft | 484 kts | 67° |
| 2026-04-25 14:48 | 57.58652 | -95.59373 | 41274 ft | 483 kts | 67° |
| 2026-04-25 14:48 | 57.61800 | -95.48323 | 41257 ft | 482 kts | 67° |
| 2026-04-25 14:49 | 57.64938 | -95.37248 | 41271 ft | 482 kts | 67° |
| 2026-04-25 14:49 | 57.68067 | -95.26157 | 41256 ft | 482 kts | 67° |
| 2026-04-25 14:50 | 57.71183 | -95.15057 | 41275 ft | 482 kts | 67° |
| 2026-04-25 14:50 | 57.74293 | -95.03928 | 41262 ft | 482 kts | 67° |
| 2026-04-25 14:51 | 57.77390 | -94.92789 | 41281 ft | 482 kts | 68° |
| 2026-04-25 14:51 | 57.80480 | -94.81620 | 41265 ft | 482 kts | 67° |
| 2026-04-25 14:52 | 57.83548 | -94.70481 | 41271 ft | 479 kts | 68° |
| 2026-04-25 14:52 | 57.86078 | -94.61252 | 41266 ft | 478 kts | 68° |
| 2026-04-25 14:53 | 57.89619 | -94.48268 | 41276 ft | 477 kts | 68° |
| 2026-04-25 14:53 | 57.92618 | -94.37211 | 41273 ft | 477 kts | 68° |
| 2026-04-25 14:54 | 57.95644 | -94.26001 | 41257 ft | 477 kts | 68° |
| 2026-04-25 14:54 | 57.98616 | -94.14942 | 41277 ft | 475 kts | 68° |
| 2026-04-25 14:55 | 58.01591 | -94.03818 | 41276 ft | 475 kts | 68° |
| 2026-04-25 14:55 | 58.04554 | -93.92680 | 41276 ft | 475 kts | 68° |
| 2026-04-25 14:56 | 58.07506 | -93.81525 | 41274 ft | 475 kts | 68° |
| 2026-04-25 14:56 | 58.10449 | -93.70355 | 41282 ft | 474 kts | 68° |
| 2026-04-25 14:57 | 58.13376 | -93.59189 | 41281 ft | 473 kts | 68° |
| 2026-04-25 14:57 | 58.16283 | -93.48043 | 41289 ft | 472 kts | 68° |
| 2026-04-25 14:58 | 58.19177 | -93.36891 | 41279 ft | 471 kts | 68° |
| 2026-04-25 14:58 | 58.22059 | -93.25728 | 41295 ft | 471 kts | 68° |
| 2026-04-25 14:59 | 58.24933 | -93.14541 | 41288 ft | 471 kts | 68° |
| 2026-04-25 14:59 | 58.27798 | -93.03333 | 41286 ft | 471 kts | 68° |
| 2026-04-25 15:00 | 58.30630 | -92.92198 | 41292 ft | 471 kts | 68° |
| 2026-04-25 15:00 | 58.33472 | -92.80972 | 41294 ft | 471 kts | 68° |
| 2026-04-25 15:01 | 58.36305 | -92.69722 | 41299 ft | 471 kts | 68° |
| 2026-04-25 15:01 | 58.39127 | -92.58456 | 41299 ft | 471 kts | 68° |
| 2026-04-25 15:02 | 58.41940 | -92.47167 | 41287 ft | 471 kts | 68° |
| 2026-04-25 15:02 | 58.44743 | -92.35863 | 41298 ft | 471 kts | 68° |
| 2026-04-25 15:03 | 58.47531 | -92.24564 | 41310 ft | 470 kts | 68° |
| 2026-04-25 15:03 | 58.50306 | -92.13257 | 41313 ft | 470 kts | 68° |
| 2026-04-25 15:04 | 58.53069 | -92.01940 | 41312 ft | 469 kts | 68° |
| 2026-04-25 15:04 | 58.55823 | -91.90604 | 41307 ft | 469 kts | 69° |
| 2026-04-25 15:05 | 58.58563 | -91.79261 | 41316 ft | 468 kts | 68° |
| 2026-04-25 15:06 | 58.62640 | -91.62281 | 41317 ft | 467 kts | 69° |
| 2026-04-25 15:06 | 58.65345 | -91.50940 | 41317 ft | 467 kts | 69° |
| 2026-04-25 15:07 | 58.68038 | -91.39589 | 41318 ft | 467 kts | 69° |
| 2026-04-25 15:07 | 58.70723 | -91.28213 | 41325 ft | 467 kts | 69° |
| 2026-04-25 15:08 | 58.73376 | -91.16910 | 41329 ft | 467 kts | 69° |
| 2026-04-25 15:08 | 58.76043 | -91.05490 | 41328 ft | 467 kts | 69° |
| 2026-04-25 15:09 | 58.78698 | -90.94061 | 41327 ft | 467 kts | 69° |
| 2026-04-25 15:09 | 58.82664 | -90.76873 | 41336 ft | 467 kts | 69° |
| 2026-04-25 15:10 | 58.85296 | -90.65393 | 41335 ft | 467 kts | 69° |
| 2026-04-25 15:11 | 58.89219 | -90.48157 | 41339 ft | 467 kts | 69° |
| 2026-04-25 15:11 | 58.91824 | -90.36638 | 41338 ft | 467 kts | 69° |
| 2026-04-25 15:12 | 58.95710 | -90.19336 | 41338 ft | 467 kts | 69° |
| 2026-04-25 15:12 | 58.97418 | -90.11688 | 41338 ft | 467 kts | 70° |
| 2026-04-25 15:13 | 59.02290 | -89.90612 | 41338 ft | 467 kts | 67° |
| 2026-04-25 15:14 | 59.05161 | -89.79286 | 41345 ft | 467 kts | 66° |
| 2026-04-25 15:14 | 59.08025 | -89.67954 | 41346 ft | 467 kts | 66° |
| 2026-04-25 15:15 | 59.10853 | -89.56600 | 41347 ft | 467 kts | 67° |
| 2026-04-25 15:15 | 59.13663 | -89.45205 | 41346 ft | 467 kts | 67° |
| 2026-04-25 15:16 | 59.16460 | -89.33794 | 41351 ft | 467 kts | 67° |
| 2026-04-25 15:16 | 59.20639 | -89.16644 | 41354 ft | 467 kts | 67° |
| 2026-04-25 15:17 | 59.24799 | -88.99439 | 41354 ft | 467 kts | 68° |
| 2026-04-25 15:18 | 59.27557 | -88.87956 | 41363 ft | 467 kts | 68° |
| 2026-04-25 15:18 | 59.31674 | -88.70703 | 41341 ft | 466 kts | 68° |
| 2026-04-25 15:19 | 59.33503 | -88.62990 | 41363 ft | 466 kts | 67° |
| 2026-04-25 15:19 | 59.37128 | -88.47631 | 41374 ft | 466 kts | 68° |
| 2026-04-25 15:20 | 59.39837 | -88.36081 | 41375 ft | 466 kts | 68° |
| 2026-04-25 15:20 | 59.42535 | -88.24514 | 41374 ft | 466 kts | 68° |
| 2026-04-25 15:21 | 59.45225 | -88.12918 | 41372 ft | 466 kts | 68° |
| 2026-04-25 15:21 | 59.47904 | -88.01308 | 41375 ft | 466 kts | 68° |
| 2026-04-25 15:22 | 59.50572 | -87.89682 | 41382 ft | 466 kts | 68° |
| 2026-04-25 15:22 | 59.53232 | -87.78034 | 41389 ft | 466 kts | 68° |
| 2026-04-25 15:23 | 59.55877 | -87.66381 | 41379 ft | 466 kts | 68° |
| 2026-04-25 15:23 | 59.58512 | -87.54709 | 41402 ft | 466 kts | 68° |
| 2026-04-25 15:24 | 59.61142 | -87.42993 | 41397 ft | 467 kts | 68° |
| 2026-04-25 15:24 | 59.62881 | -87.35206 | 41397 ft | 468 kts | 68° |
| 2026-04-25 15:25 | 59.66364 | -87.19536 | 41407 ft | 468 kts | 68° |
| 2026-04-25 15:25 | 59.68969 | -87.07741 | 41420 ft | 467 kts | 68° |
| 2026-04-25 15:26 | 59.71563 | -86.95927 | 41415 ft | 467 kts | 68° |
| 2026-04-25 15:26 | 59.73710 | -86.86097 | 41414 ft | 467 kts | 68° |
| 2026-04-25 15:27 | 59.76283 | -86.74253 | 41409 ft | 467 kts | 69° |
| 2026-04-25 15:28 | 59.80121 | -86.56466 | 41427 ft | 467 kts | 69° |
| 2026-04-25 15:28 | 59.82664 | -86.44592 | 41425 ft | 467 kts | 69° |
| 2026-04-25 15:29 | 59.85193 | -86.32716 | 41431 ft | 467 kts | 69° |
| 2026-04-25 15:29 | 59.87723 | -86.20769 | 41430 ft | 469 kts | 69° |
| 2026-04-25 15:30 | 59.90247 | -86.08780 | 41437 ft | 469 kts | 69° |
| 2026-04-25 15:30 | 59.92758 | -85.96787 | 41443 ft | 468 kts | 69° |
| 2026-04-25 15:31 | 59.95254 | -85.84796 | 41441 ft | 468 kts | 69° |
| 2026-04-25 15:31 | 59.97733 | -85.72817 | 41441 ft | 468 kts | 69° |
| 2026-04-25 15:32 | 60.00201 | -85.60814 | 41454 ft | 468 kts | 69° |
| 2026-04-25 15:32 | 60.02665 | -85.48759 | 41454 ft | 468 kts | 69° |
| 2026-04-25 15:33 | 60.06337 | -85.30653 | 41452 ft | 468 kts | 69° |
| 2026-04-25 15:33 | 60.08768 | -85.18579 | 41457 ft | 467 kts | 69° |
| 2026-04-25 15:34 | 60.11173 | -85.06558 | 41467 ft | 468 kts | 69° |
| 2026-04-25 15:34 | 60.13202 | -84.96373 | 41467 ft | 469 kts | 70° |
| 2026-04-25 15:35 | 60.17202 | -84.76129 | 41469 ft | 470 kts | 70° |
| 2026-04-25 15:36 | 60.20787 | -84.57814 | 41476 ft | 469 kts | 69° |
| 2026-04-25 15:36 | 60.23156 | -84.45612 | 41473 ft | 468 kts | 69° |
| 2026-04-25 15:37 | 60.25513 | -84.33408 | 41479 ft | 467 kts | 69° |
| 2026-04-25 15:37 | 60.27856 | -84.21202 | 41486 ft | 467 kts | 70° |
| 2026-04-25 15:38 | 60.30184 | -84.08983 | 41489 ft | 467 kts | 70° |
| 2026-04-25 15:38 | 60.32503 | -83.96724 | 41484 ft | 468 kts | 70° |
| 2026-04-25 15:39 | 60.34813 | -83.84446 | 41492 ft | 469 kts | 70° |
| 2026-04-25 15:39 | 60.37124 | -83.72092 | 41499 ft | 471 kts | 70° |
| 2026-04-25 15:40 | 60.39042 | -83.61778 | 41499 ft | 471 kts | 70° |
| 2026-04-25 15:40 | 60.41722 | -83.47273 | 41502 ft | 471 kts | 70° |
| 2026-04-25 15:41 | 60.44002 | -83.34843 | 41500 ft | 471 kts | 70° |
| 2026-04-25 15:41 | 60.46269 | -83.22405 | 41507 ft | 470 kts | 70° |
| 2026-04-25 15:42 | 60.48523 | -83.09956 | 41517 ft | 471 kts | 70° |
| 2026-04-25 15:42 | 60.50756 | -82.97544 | 41514 ft | 470 kts | 70° |
| 2026-04-25 15:43 | 60.52991 | -82.85040 | 41513 ft | 470 kts | 70° |
| 2026-04-25 15:43 | 60.55198 | -82.72610 | 41514 ft | 470 kts | 70° |
| 2026-04-25 15:44 | 60.57417 | -82.60034 | 41525 ft | 472 kts | 70° |
| 2026-04-25 15:44 | 60.59624 | -82.47434 | 41523 ft | 474 kts | 70° |
| 2026-04-25 15:45 | 60.61829 | -82.34765 | 41530 ft | 476 kts | 70° |
| 2026-04-25 15:45 | 60.63656 | -82.24197 | 41531 ft | 476 kts | 70° |
| 2026-04-25 15:46 | 60.66196 | -82.09406 | 41537 ft | 475 kts | 70° |
| 2026-04-25 15:46 | 60.68369 | -81.96662 | 41539 ft | 475 kts | 70° |
| 2026-04-25 15:47 | 60.70529 | -81.83899 | 41543 ft | 475 kts | 70° |
| 2026-04-25 15:47 | 60.72673 | -81.71143 | 41542 ft | 474 kts | 70° |
| 2026-04-25 15:48 | 60.74800 | -81.58403 | 41550 ft | 473 kts | 71° |
| 2026-04-25 15:48 | 60.76917 | -81.45641 | 41555 ft | 473 kts | 71° |
| 2026-04-25 15:49 | 60.79021 | -81.32852 | 41554 ft | 475 kts | 70° |
| 2026-04-25 15:49 | 60.81141 | -81.19889 | 41560 ft | 478 kts | 70° |
| 2026-04-25 15:50 | 60.83232 | -81.07004 | 41563 ft | 480 kts | 70° |
| 2026-04-25 15:50 | 60.85329 | -80.93972 | 41566 ft | 480 kts | 70° |
| 2026-04-25 15:51 | 60.87057 | -80.83163 | 41567 ft | 479 kts | 70° |
| 2026-04-25 15:51 | 60.89472 | -80.67972 | 41563 ft | 479 kts | 71° |
| 2026-04-25 15:52 | 60.91515 | -80.55013 | 41573 ft | 479 kts | 71° |
| 2026-04-25 15:52 | 60.93552 | -80.41970 | 41571 ft | 479 kts | 71° |
| 2026-04-25 15:53 | 60.95581 | -80.28916 | 41578 ft | 479 kts | 71° |
| 2026-04-25 15:53 | 60.97596 | -80.15845 | 41578 ft | 479 kts | 71° |
| 2026-04-25 15:54 | 60.99530 | -80.02675 | 41589 ft | 482 kts | 75° |
| 2026-04-25 15:54 | 61.00453 | -79.88945 | 41589 ft | 486 kts | 83° |
| 2026-04-25 15:55 | 61.00999 | -79.75034 | 41587 ft | 487 kts | 84° |
| 2026-04-25 15:55 | 61.01467 | -79.61113 | 41589 ft | 487 kts | 84° |
| 2026-04-25 15:56 | 61.01931 | -79.47207 | 41591 ft | 486 kts | 84° |
| 2026-04-25 15:56 | 61.02398 | -79.33287 | 41590 ft | 486 kts | 84° |
| 2026-04-25 15:57 | 61.02855 | -79.19368 | 41598 ft | 486 kts | 84° |
| 2026-04-25 15:57 | 61.03298 | -79.05450 | 41598 ft | 486 kts | 84° |
| 2026-04-25 15:58 | 61.03724 | -78.91606 | 41598 ft | 486 kts | 85° |
| 2026-04-25 15:58 | 61.04137 | -78.77679 | 41601 ft | 485 kts | 84° |
| 2026-04-25 15:59 | 61.04535 | -78.63806 | 41600 ft | 484 kts | 85° |
| 2026-04-25 15:59 | 61.04918 | -78.49939 | 41603 ft | 484 kts | 85° |
| 2026-04-25 16:00 | 61.05167 | -78.40652 | 41606 ft | 484 kts | 85° |
| 2026-04-25 16:00 | 61.05642 | -78.22175 | 41611 ft | 484 kts | 85° |
| 2026-04-25 16:01 | 61.05983 | -78.08293 | 41606 ft | 483 kts | 85° |
| 2026-04-25 16:01 | 61.06307 | -77.94463 | 41611 ft | 482 kts | 85° |
| 2026-04-25 16:02 | 61.06618 | -77.80636 | 41608 ft | 482 kts | 85° |
| 2026-04-25 16:02 | 61.06915 | -77.66798 | 41612 ft | 482 kts | 85° |
| 2026-04-25 16:03 | 61.07198 | -77.52966 | 41609 ft | 482 kts | 85° |
| 2026-04-25 16:03 | 61.07466 | -77.39138 | 41613 ft | 481 kts | 86° |
| 2026-04-25 16:04 | 61.07719 | -77.25350 | 41616 ft | 479 kts | 86° |
| 2026-04-25 16:04 | 61.07958 | -77.11600 | 41624 ft | 479 kts | 86° |
| 2026-04-25 16:05 | 61.08182 | -76.97836 | 41625 ft | 479 kts | 86° |
| 2026-04-25 16:06 | 61.08493 | -76.77195 | 41628 ft | 479 kts | 86° |
| 2026-04-25 16:06 | 61.08682 | -76.63411 | 41629 ft | 479 kts | 86° |
| 2026-04-25 16:07 | 61.08858 | -76.49672 | 41633 ft | 478 kts | 86° |
| 2026-04-25 16:07 | 61.09020 | -76.35940 | 41634 ft | 478 kts | 86° |
| 2026-04-25 16:08 | 61.09168 | -76.22187 | 41630 ft | 478 kts | 86° |
| 2026-04-25 16:08 | 61.09301 | -76.08449 | 41632 ft | 478 kts | 86° |
| 2026-04-25 16:09 | 61.09420 | -75.94803 | 41632 ft | 478 kts | 86° |
| 2026-04-25 16:09 | 61.09526 | -75.80986 | 41632 ft | 478 kts | 87° |
| 2026-04-25 16:10 | 61.09617 | -75.67353 | 41633 ft | 477 kts | 87° |
| 2026-04-25 16:10 | 61.09695 | -75.53625 | 41633 ft | 478 kts | 87° |
| 2026-04-25 16:11 | 61.09759 | -75.39895 | 41630 ft | 478 kts | 87° |
| 2026-04-25 16:11 | 61.09802 | -75.28386 | 41634 ft | 478 kts | 87° |
| 2026-04-25 16:12 | 61.09840 | -75.14650 | 41634 ft | 478 kts | 87° |
| 2026-04-25 16:12 | 61.09864 | -75.01005 | 41636 ft | 479 kts | 87° |
| 2026-04-25 16:13 | 61.09875 | -74.87211 | 41644 ft | 481 kts | 88° |
| 2026-04-25 16:13 | 61.09872 | -74.73374 | 41639 ft | 481 kts | 88° |
| 2026-04-25 16:14 | 61.09854 | -74.59550 | 41648 ft | 481 kts | 88° |
| 2026-04-25 16:14 | 61.09821 | -74.45721 | 41640 ft | 481 kts | 88° |
| 2026-04-25 16:15 | 61.09776 | -74.31893 | 41640 ft | 481 kts | 88° |
| 2026-04-25 16:15 | 61.09716 | -74.18061 | 41632 ft | 481 kts | 88° |
| 2026-04-25 16:16 | 61.09641 | -74.04238 | 41632 ft | 481 kts | 88° |
| 2026-04-25 16:16 | 61.09554 | -73.90413 | 41645 ft | 481 kts | 88° |
| 2026-04-25 16:17 | 61.09451 | -73.76578 | 41638 ft | 481 kts | 88° |
| 2026-04-25 16:17 | 61.09334 | -73.62764 | 41642 ft | 481 kts | 88° |
| 2026-04-25 16:18 | 61.09204 | -73.48946 | 41639 ft | 481 kts | 88° |
| 2026-04-25 16:18 | 61.09060 | -73.35125 | 41628 ft | 481 kts | 88° |
| 2026-04-25 16:19 | 61.08901 | -73.21310 | 41643 ft | 481 kts | 88° |
| 2026-04-25 16:19 | 61.08728 | -73.07492 | 41643 ft | 480 kts | 88° |
| 2026-04-25 16:20 | 61.08457 | -72.86816 | 41645 ft | 479 kts | 87° |
| 2026-04-25 16:20 | 61.09257 | -72.73276 | 41646 ft | 473 kts | 74° |
| 2026-04-25 16:21 | 61.10017 | -72.66671 | 41653 ft | 473 kts | 73° |
| 2026-04-25 16:21 | 61.11694 | -72.53526 | 41651 ft | 474 kts | 71° |
| 2026-04-25 16:22 | 61.13417 | -72.40325 | 41644 ft | 477 kts | 72° |
| 2026-04-25 16:22 | 61.15114 | -72.27053 | 41641 ft | 476 kts | 72° |
| 2026-04-25 16:23 | 61.16764 | -72.13882 | 41640 ft | 476 kts | 72° |
| 2026-04-25 16:23 | 61.18408 | -72.00608 | 41653 ft | 476 kts | 72° |
| 2026-04-25 16:24 | 61.20040 | -71.87313 | 41653 ft | 476 kts | 72° |
| 2026-04-25 16:24 | 61.21658 | -71.74016 | 41658 ft | 476 kts | 72° |
| 2026-04-25 16:25 | 61.23266 | -71.60686 | 41655 ft | 476 kts | 72° |
| 2026-04-25 16:25 | 61.24858 | -71.47366 | 41667 ft | 475 kts | 72° |
| 2026-04-25 16:26 | 61.26435 | -71.34045 | 41661 ft | 475 kts | 72° |
| 2026-04-25 16:26 | 61.28006 | -71.20663 | 41654 ft | 477 kts | 72° |
| 2026-04-25 16:27 | 61.29567 | -71.07233 | 41656 ft | 478 kts | 73° |
| 2026-04-25 16:27 | 61.31106 | -70.93869 | 41657 ft | 478 kts | 73° |
| 2026-04-25 16:28 | 61.32640 | -70.80413 | 41656 ft | 478 kts | 73° |
| 2026-04-25 16:28 | 61.34160 | -70.66948 | 41656 ft | 477 kts | 73° |
| 2026-04-25 16:29 | 61.35664 | -70.53507 | 41656 ft | 476 kts | 73° |
| 2026-04-25 16:29 | 61.37155 | -70.40044 | 41650 ft | 477 kts | 73° |
| 2026-04-25 16:30 | 61.38633 | -70.26568 | 41646 ft | 477 kts | 73° |
| 2026-04-25 16:30 | 61.40098 | -70.13068 | 41649 ft | 478 kts | 73° |
| 2026-04-25 16:31 | 61.41558 | -69.99493 | 41647 ft | 480 kts | 73° |
| 2026-04-25 16:31 | 61.43005 | -69.85885 | 41645 ft | 479 kts | 73° |
| 2026-04-25 16:32 | 61.44435 | -69.72296 | 41645 ft | 478 kts | 73° |
| 2026-04-25 16:32 | 61.45851 | -69.58703 | 41640 ft | 478 kts | 74° |
| 2026-04-25 16:33 | 61.47252 | -69.45110 | 41637 ft | 478 kts | 74° |
| 2026-04-25 16:33 | 61.48642 | -69.31490 | 41637 ft | 478 kts | 74° |
| 2026-04-25 16:34 | 61.50016 | -69.17868 | 41629 ft | 479 kts | 74° |
| 2026-04-25 16:34 | 61.51378 | -69.04220 | 41629 ft | 478 kts | 74° |
| 2026-04-25 16:35 | 61.52727 | -68.90562 | 41619 ft | 479 kts | 74° |
| 2026-04-25 16:35 | 61.54065 | -68.76862 | 41618 ft | 480 kts | 74° |
| 2026-04-25 16:36 | 61.55391 | -68.63130 | 41618 ft | 480 kts | 75° |
| 2026-04-25 16:36 | 61.56695 | -68.49469 | 41616 ft | 480 kts | 75° |
| 2026-04-25 16:37 | 61.57993 | -68.35714 | 41612 ft | 480 kts | 75° |
| 2026-04-25 16:37 | 61.59279 | -68.21939 | 41615 ft | 480 kts | 75° |
| 2026-04-25 16:38 | 61.60548 | -68.08182 | 41613 ft | 480 kts | 75° |
| 2026-04-25 16:38 | 61.61804 | -67.94405 | 41607 ft | 480 kts | 75° |
| 2026-04-25 16:39 | 61.63046 | -67.80621 | 41607 ft | 480 kts | 75° |
| 2026-04-25 16:39 | 61.64276 | -67.66803 | 41608 ft | 482 kts | 75° |
| 2026-04-25 16:40 | 61.65292 | -67.55269 | 41604 ft | 483 kts | 75° |
| 2026-04-25 16:40 | 61.66705 | -67.39010 | 41605 ft | 483 kts | 76° |
| 2026-04-25 16:41 | 61.67897 | -67.25099 | 41603 ft | 483 kts | 76° |
| 2026-04-25 16:41 | 61.69715 | -67.04232 | 41598 ft | 481 kts | 72° |
| 2026-04-25 16:42 | 61.71962 | -66.91108 | 41603 ft | 475 kts | 62° |
| 2026-04-25 16:42 | 61.74670 | -66.78422 | 41602 ft | 474 kts | 61° |
| 2026-04-25 16:43 | 61.77447 | -66.65801 | 41603 ft | 475 kts | 61° |
| 2026-04-25 16:43 | 61.80222 | -66.53084 | 41607 ft | 477 kts | 61° |
| 2026-04-25 16:44 | 61.82951 | -66.40398 | 41598 ft | 476 kts | 61° |
| 2026-04-25 16:44 | 61.85674 | -66.27625 | 41598 ft | 476 kts | 61° |
| 2026-04-25 16:45 | 61.88387 | -66.14819 | 41603 ft | 476 kts | 62° |
| 2026-04-25 16:45 | 61.91090 | -66.01987 | 41605 ft | 476 kts | 62° |
| 2026-04-25 16:46 | 61.93780 | -65.89137 | 41625 ft | 476 kts | 62° |
| 2026-04-25 16:46 | 61.95576 | -65.80512 | 41607 ft | 478 kts | 62° |
| 2026-04-25 16:47 | 61.99151 | -65.63247 | 41604 ft | 480 kts | 62° |
| 2026-04-25 16:47 | 62.01828 | -65.50214 | 41591 ft | 480 kts | 62° |
| 2026-04-25 16:48 | 62.04485 | -65.37191 | 41610 ft | 479 kts | 62° |
| 2026-04-25 16:48 | 62.07125 | -65.24174 | 41587 ft | 478 kts | 62° |
| 2026-04-25 16:49 | 62.09756 | -65.11125 | 41603 ft | 479 kts | 62° |
| 2026-04-25 16:49 | 62.12377 | -64.98039 | 41594 ft | 480 kts | 62° |
| 2026-04-25 16:50 | 62.14999 | -64.84869 | 41586 ft | 483 kts | 62° |
| 2026-04-25 16:50 | 62.17620 | -64.71612 | 41590 ft | 484 kts | 62° |
| 2026-04-25 16:51 | 62.20211 | -64.58413 | 41592 ft | 483 kts | 63° |
| 2026-04-25 16:51 | 62.21947 | -64.49521 | 41597 ft | 483 kts | 63° |
| 2026-04-25 16:52 | 62.25378 | -64.31833 | 41591 ft | 482 kts | 63° |
| 2026-04-25 16:52 | 62.27937 | -64.18545 | 41588 ft | 482 kts | 63° |
| 2026-04-25 16:53 | 62.31752 | -63.98563 | 41581 ft | 482 kts | 63° |
| 2026-04-25 16:54 | 62.34284 | -63.85191 | 41586 ft | 482 kts | 63° |
| 2026-04-25 16:54 | 62.36376 | -63.74071 | 41585 ft | 482 kts | 63° |
| 2026-04-25 16:55 | 62.39287 | -63.58498 | 41582 ft | 482 kts | 63° |
| 2026-04-25 16:55 | 62.41780 | -63.45061 | 41588 ft | 482 kts | 64° |
| 2026-04-25 16:56 | 62.43856 | -63.33796 | 41587 ft | 483 kts | 64° |
| 2026-04-25 16:56 | 62.46320 | -63.20354 | 41574 ft | 486 kts | 64° |
| 2026-04-25 16:57 | 62.48796 | -63.06745 | 41570 ft | 487 kts | 64° |
| 2026-04-25 16:57 | 62.51377 | -62.93239 | 41572 ft | 485 kts | 61° |
| 2026-04-25 16:58 | 62.54242 | -62.80053 | 41564 ft | 484 kts | 59° |
| 2026-04-25 16:58 | 62.57144 | -62.66887 | 41561 ft | 484 kts | 60° |
| 2026-04-25 16:59 | 62.60002 | -62.53678 | 41583 ft | 484 kts | 60° |
| 2026-04-25 16:59 | 62.62837 | -62.40362 | 41561 ft | 487 kts | 60° |
| 2026-04-25 17:00 | 62.65669 | -62.26946 | 41552 ft | 489 kts | 60° |
| 2026-04-25 17:00 | 62.68488 | -62.13495 | 41554 ft | 488 kts | 61° |
| 2026-04-25 17:01 | 62.71296 | -62.00023 | 41551 ft | 488 kts | 61° |
| 2026-04-25 17:01 | 62.74092 | -61.86518 | 41546 ft | 488 kts | 61° |
| 2026-04-25 17:02 | 62.76878 | -61.72982 | 41566 ft | 489 kts | 61° |
| 2026-04-25 17:02 | 62.79637 | -61.59486 | 41543 ft | 492 kts | 61° |
| 2026-04-25 17:03 | 62.82421 | -61.45784 | 41540 ft | 494 kts | 62° |
| 2026-04-25 17:03 | 62.85192 | -61.32043 | 41534 ft | 493 kts | 62° |
| 2026-04-25 17:04 | 62.87950 | -61.18271 | 41536 ft | 493 kts | 62° |
| 2026-04-25 17:04 | 62.90693 | -61.04483 | 41528 ft | 492 kts | 62° |
| 2026-04-25 17:05 | 62.93420 | -60.90691 | 41540 ft | 493 kts | 62° |
| 2026-04-25 17:05 | 62.97507 | -60.69848 | 41518 ft | 497 kts | 62° |
| 2026-04-25 17:06 | 63.00230 | -60.55832 | 41519 ft | 498 kts | 62° |
| 2026-04-25 17:06 | 63.02922 | -60.41876 | 41506 ft | 498 kts | 63° |
| 2026-04-25 17:07 | 63.05615 | -60.27816 | 41505 ft | 498 kts | 63° |
| 2026-04-25 17:07 | 63.08296 | -60.13722 | 41505 ft | 498 kts | 63° |
| 2026-04-25 17:08 | 63.10964 | -59.99607 | 41495 ft | 500 kts | 63° |
| 2026-04-25 17:08 | 63.13637 | -59.85356 | 41491 ft | 502 kts | 63° |
| 2026-04-25 17:09 | 63.16297 | -59.71066 | 41490 ft | 502 kts | 63° |
| 2026-04-25 17:09 | 63.18941 | -59.56758 | 41489 ft | 502 kts | 64° |
| 2026-04-25 17:10 | 63.21570 | -59.42432 | 41473 ft | 502 kts | 64° |
| 2026-04-25 17:10 | 63.24187 | -59.28072 | 41474 ft | 502 kts | 64° |
| 2026-04-25 17:11 | 63.26792 | -59.13672 | 41477 ft | 504 kts | 64° |
| 2026-04-25 17:11 | 63.29401 | -58.99152 | 41459 ft | 507 kts | 64° |
| 2026-04-25 17:12 | 63.32005 | -58.84540 | 41462 ft | 508 kts | 64° |
| 2026-04-25 17:12 | 63.34587 | -58.69933 | 41452 ft | 506 kts | 64° |
| 2026-04-25 17:13 | 63.36735 | -58.57698 | 41444 ft | 506 kts | 65° |
| 2026-04-25 17:13 | 63.39699 | -58.40691 | 41468 ft | 506 kts | 65° |
| 2026-04-25 17:14 | 63.42237 | -58.26007 | 41447 ft | 509 kts | 65° |
| 2026-04-25 17:14 | 63.44777 | -58.11204 | 41430 ft | 510 kts | 65° |
| 2026-04-25 17:15 | 63.46994 | -57.96091 | 41428 ft | 514 kts | 72° |
| 2026-04-25 17:15 | 63.48586 | -57.80485 | 41408 ft | 515 kts | 74° |
| 2026-04-25 17:16 | 63.50040 | -57.64890 | 41391 ft | 515 kts | 75° |
| 2026-04-25 17:16 | 63.51473 | -57.49209 | 41405 ft | 514 kts | 75° |
| 2026-04-25 17:17 | 63.52903 | -57.33513 | 41403 ft | 515 kts | 75° |
| 2026-04-25 17:17 | 63.54330 | -57.17735 | 41391 ft | 517 kts | 75° |
| 2026-04-25 17:18 | 63.55743 | -57.01919 | 41387 ft | 517 kts | 76° |
| 2026-04-25 17:18 | 63.57138 | -56.86084 | 41393 ft | 517 kts | 76° |
| 2026-04-25 17:19 | 63.58515 | -56.70240 | 41365 ft | 517 kts | 76° |
| 2026-04-25 17:19 | 63.59875 | -56.54369 | 41367 ft | 517 kts | 76° |
| 2026-04-25 17:20 | 63.61218 | -56.38483 | 41362 ft | 517 kts | 76° |
| 2026-04-25 17:20 | 63.62546 | -56.22559 | 41339 ft | 519 kts | 76° |
| 2026-04-25 17:21 | 63.63859 | -56.06577 | 41338 ft | 520 kts | 77° |
| 2026-04-25 17:21 | 63.65147 | -55.90671 | 41316 ft | 520 kts | 77° |
| 2026-04-25 17:22 | 63.66218 | -55.77261 | 41313 ft | 520 kts | 77° |
| 2026-04-25 17:22 | 63.67685 | -55.58622 | 41318 ft | 520 kts | 77° |
| 2026-04-25 17:23 | 63.68927 | -55.42575 | 41288 ft | 519 kts | 77° |
| 2026-04-25 17:23 | 63.70151 | -55.26523 | 41291 ft | 518 kts | 77° |
| 2026-04-25 17:24 | 63.71355 | -55.10489 | 41285 ft | 518 kts | 77° |
| 2026-04-25 17:24 | 63.72541 | -54.94443 | 41269 ft | 518 kts | 78° |
| 2026-04-25 17:25 | 63.73710 | -54.78373 | 41268 ft | 518 kts | 78° |
| 2026-04-25 17:25 | 63.74860 | -54.62304 | 41251 ft | 518 kts | 78° |
| 2026-04-25 17:26 | 63.75994 | -54.46187 | 41249 ft | 518 kts | 78° |
| 2026-04-25 17:26 | 63.77100 | -54.30177 | 41263 ft | 518 kts | 78° |
| 2026-04-25 17:27 | 63.78202 | -54.14019 | 41230 ft | 519 kts | 78° |
| 2026-04-25 17:27 | 63.78929 | -54.03222 | 41226 ft | 520 kts | 78° |
| 2026-04-25 17:28 | 63.80350 | -53.81691 | 41222 ft | 521 kts | 79° |
| 2026-04-25 17:28 | 63.81395 | -53.65460 | 41198 ft | 521 kts | 79° |
| 2026-04-25 17:29 | 63.82423 | -53.49210 | 41205 ft | 521 kts | 79° |
| 2026-04-25 17:29 | 63.83429 | -53.33038 | 41181 ft | 521 kts | 80° |
| 2026-04-25 17:30 | 63.84422 | -53.16797 | 41190 ft | 519 kts | 80° |
| 2026-04-25 17:30 | 63.85392 | -53.00588 | 41187 ft | 519 kts | 80° |
| 2026-04-25 17:31 | 63.86343 | -52.84369 | 41152 ft | 519 kts | 80° |
| 2026-04-25 17:31 | 63.87279 | -52.68131 | 41151 ft | 519 kts | 81° |
| 2026-04-25 17:32 | 63.88197 | -52.51879 | 41159 ft | 519 kts | 81° |
| 2026-04-25 17:32 | 63.89096 | -52.35633 | 41134 ft | 519 kts | 81° |
| 2026-04-25 17:33 | 63.89974 | -52.19375 | 41135 ft | 519 kts | 81° |
| 2026-04-25 17:33 | 63.90828 | -52.03233 | 41126 ft | 517 kts | 82° |
| 2026-04-25 17:34 | 63.91671 | -51.86926 | 41109 ft | 516 kts | 82° |
| 2026-04-25 17:34 | 63.92490 | -51.70745 | 41105 ft | 515 kts | 82° |
| 2026-04-25 17:35 | 63.93286 | -51.54661 | 41093 ft | 515 kts | 82° |
| 2026-04-25 17:35 | 63.94070 | -51.38466 | 41093 ft | 515 kts | 82° |
| 2026-04-25 17:36 | 63.94836 | -51.22249 | 41095 ft | 515 kts | 83° |
| 2026-04-25 17:36 | 63.95584 | -51.06017 | 41084 ft | 515 kts | 83° |
| 2026-04-25 17:37 | 63.96312 | -50.89806 | 41088 ft | 515 kts | 83° |
| 2026-04-25 17:37 | 63.97023 | -50.73573 | 41105 ft | 516 kts | 83° |
| 2026-04-25 17:38 | 63.97489 | -50.62697 | 41095 ft | 516 kts | 83° |
| 2026-04-25 17:38 | 63.98392 | -50.41053 | 41094 ft | 516 kts | 84° |
| 2026-04-25 17:39 | 63.99049 | -50.24786 | 41088 ft | 516 kts | 84° |
| 2026-04-25 17:39 | 63.99581 | -50.11262 | 41088 ft | 516 kts | 84° |
| 2026-04-25 17:40 | 64.00289 | -49.92343 | 41108 ft | 515 kts | 85° |
| 2026-04-25 17:40 | 64.00831 | -49.76071 | 41087 ft | 515 kts | 85° |
| 2026-04-25 17:41 | 64.01266 | -49.62409 | 41087 ft | 516 kts | 85° |
| 2026-04-25 17:41 | 64.01768 | -49.46209 | 41085 ft | 516 kts | 85° |
| 2026-04-25 17:42 | 64.02260 | -49.29888 | 41066 ft | 516 kts | 85° |
| 2026-04-25 17:42 | 64.02734 | -49.13563 | 41066 ft | 516 kts | 85° |
| 2026-04-25 17:43 | 64.03189 | -48.97233 | 41053 ft | 516 kts | 86° |
| 2026-04-25 17:43 | 64.03627 | -48.80910 | 41038 ft | 515 kts | 86° |
| 2026-04-25 17:44 | 64.04045 | -48.64604 | 41029 ft | 515 kts | 86° |
| 2026-04-25 17:44 | 64.04445 | -48.48290 | 41023 ft | 515 kts | 86° |
| 2026-04-25 17:45 | 64.04766 | -48.34608 | 41013 ft | 515 kts | 86° |
| 2026-04-25 17:45 | 64.05190 | -48.15635 | 41022 ft | 515 kts | 87° |
| 2026-04-25 17:46 | 64.05535 | -47.99304 | 41016 ft | 515 kts | 87° |
| 2026-04-25 17:46 | 64.05862 | -47.82962 | 41016 ft | 515 kts | 87° |
| 2026-04-25 17:47 | 64.06171 | -47.66635 | 41025 ft | 514 kts | 88° |
| 2026-04-25 17:47 | 64.06460 | -47.50312 | 41014 ft | 514 kts | 88° |
| 2026-04-25 17:48 | 64.06860 | -47.25812 | 41020 ft | 514 kts | 88° |
| 2026-04-25 17:49 | 64.07104 | -47.09482 | 41019 ft | 514 kts | 88° |
| 2026-04-25 17:49 | 64.07330 | -46.93137 | 41018 ft | 514 kts | 88° |
| 2026-04-25 17:50 | 64.07538 | -46.76803 | 41020 ft | 514 kts | 88° |
| 2026-04-25 17:50 | 64.07727 | -46.60468 | 41024 ft | 513 kts | 89° |
| 2026-04-25 17:51 | 64.07898 | -46.44165 | 41017 ft | 513 kts | 89° |
| 2026-04-25 17:51 | 64.08049 | -46.27954 | 41024 ft | 513 kts | 89° |
| 2026-04-25 17:52 | 64.08183 | -46.11640 | 41026 ft | 513 kts | 89° |
| 2026-04-25 17:52 | 64.08298 | -45.95323 | 41026 ft | 513 kts | 89° |
| 2026-04-25 17:53 | 64.08396 | -45.79009 | 41023 ft | 513 kts | 89° |
| 2026-04-25 17:53 | 64.08475 | -45.62672 | 41024 ft | 513 kts | 90° |
| 2026-04-25 17:54 | 64.08536 | -45.46344 | 41030 ft | 514 kts | 90° |
| 2026-04-25 17:54 | 64.08579 | -45.29985 | 41024 ft | 515 kts | 90° |
| 2026-04-25 17:55 | 64.08604 | -45.13620 | 41018 ft | 515 kts | 90° |
| 2026-04-25 17:55 | 64.08610 | -44.97237 | 41023 ft | 515 kts | 90° |
| 2026-04-25 17:56 | 64.08597 | -44.80866 | 41016 ft | 515 kts | 90° |
| 2026-04-25 17:56 | 64.08567 | -44.64502 | 41017 ft | 515 kts | 91° |
| 2026-04-25 17:57 | 64.08517 | -44.48132 | 40986 ft | 515 kts | 91° |
| 2026-04-25 17:57 | 64.08451 | -44.31803 | 40994 ft | 512 kts | 91° |
| 2026-04-25 17:58 | 64.08366 | -44.15655 | 40989 ft | 511 kts | 91° |
| 2026-04-25 17:58 | 64.08263 | -43.99415 | 40969 ft | 511 kts | 91° |
| 2026-04-25 17:59 | 64.08141 | -43.83178 | 40970 ft | 511 kts | 92° |
| 2026-04-25 17:59 | 64.08002 | -43.66954 | 40969 ft | 511 kts | 92° |
| 2026-04-25 18:00 | 64.07845 | -43.50719 | 40959 ft | 511 kts | 92° |
| 2026-04-25 18:00 | 64.07669 | -43.34485 | 40952 ft | 511 kts | 92° |
| 2026-04-25 18:01 | 64.07477 | -43.18286 | 40953 ft | 509 kts | 92° |
| 2026-04-25 18:01 | 64.07266 | -43.02116 | 40935 ft | 509 kts | 93° |
| 2026-04-25 18:02 | 64.07037 | -42.85948 | 40934 ft | 509 kts | 93° |
| 2026-04-25 18:02 | 64.06790 | -42.69783 | 40914 ft | 509 kts | 93° |
| 2026-04-25 18:03 | 64.06525 | -42.53619 | 40912 ft | 509 kts | 93° |
| 2026-04-25 18:03 | 64.06243 | -42.37463 | 40914 ft | 509 kts | 93° |
| 2026-04-25 18:04 | 64.05943 | -42.21315 | 40917 ft | 509 kts | 93° |
| 2026-04-25 18:04 | 64.05626 | -42.05219 | 40924 ft | 507 kts | 94° |
| 2026-04-25 18:05 | 64.05291 | -41.89141 | 40948 ft | 507 kts | 94° |
| 2026-04-25 18:05 | 64.04939 | -41.73075 | 40967 ft | 507 kts | 94° |
| 2026-04-25 18:06 | 64.04569 | -41.57008 | 40967 ft | 507 kts | 94° |
| 2026-04-25 18:06 | 64.04181 | -41.40943 | 40977 ft | 507 kts | 94° |
| 2026-04-25 18:07 | 64.03775 | -41.24878 | 40986 ft | 507 kts | 94° |
| 2026-04-25 18:07 | 64.03352 | -41.08833 | 40979 ft | 506 kts | 94° |
| 2026-04-25 18:08 | 64.02913 | -40.92837 | 40995 ft | 505 kts | 95° |
| 2026-04-25 18:08 | 64.02456 | -40.76852 | 40990 ft | 505 kts | 95° |
| 2026-04-25 18:09 | 64.01981 | -40.60868 | 40998 ft | 505 kts | 95° |
| 2026-04-25 18:09 | 64.01490 | -40.44911 | 40997 ft | 505 kts | 95° |
| 2026-04-25 18:10 | 64.00983 | -40.29037 | 40998 ft | 505 kts | 95° |
| 2026-04-25 18:10 | 64.00454 | -40.12983 | 41003 ft | 505 kts | 95° |
| 2026-04-25 18:11 | 63.99877 | -39.97140 | 41005 ft | 504 kts | 97° |
| 2026-04-25 18:11 | 63.98942 | -39.81352 | 41011 ft | 502 kts | 100° |
| 2026-04-25 18:12 | 63.97865 | -39.65640 | 41008 ft | 502 kts | 100° |
| 2026-04-25 18:12 | 63.96793 | -39.49935 | 41010 ft | 502 kts | 100° |
| 2026-04-25 18:13 | 63.95735 | -39.34225 | 41011 ft | 502 kts | 100° |
| 2026-04-25 18:13 | 63.94671 | -39.18524 | 41014 ft | 502 kts | 100° |
| 2026-04-25 18:14 | 63.93044 | -38.94997 | 41022 ft | 502 kts | 100° |
| 2026-04-25 18:14 | 63.91939 | -38.79361 | 41005 ft | 500 kts | 101° |
| 2026-04-25 18:15 | 63.90817 | -38.63752 | 41024 ft | 501 kts | 101° |
| 2026-04-25 18:15 | 63.89677 | -38.48125 | 41012 ft | 501 kts | 101° |
| 2026-04-25 18:16 | 63.88520 | -38.32525 | 41020 ft | 501 kts | 101° |
| 2026-04-25 18:17 | 63.86755 | -38.09157 | 41016 ft | 501 kts | 101° |
| 2026-04-25 18:17 | 63.85557 | -37.93588 | 41022 ft | 500 kts | 102° |
| 2026-04-25 18:18 | 63.84347 | -37.78085 | 41015 ft | 498 kts | 102° |
| 2026-04-25 18:18 | 63.83130 | -37.62732 | 41020 ft | 498 kts | 102° |
| 2026-04-25 18:19 | 63.81891 | -37.47306 | 41025 ft | 499 kts | 102° |
| 2026-04-25 18:19 | 63.80630 | -37.31839 | 41026 ft | 500 kts | 102° |
| 2026-04-25 18:20 | 63.79353 | -37.16386 | 41008 ft | 500 kts | 102° |
| 2026-04-25 18:20 | 63.78059 | -37.00947 | 41009 ft | 499 kts | 102° |
| 2026-04-25 18:21 | 63.76754 | -36.85573 | 41010 ft | 497 kts | 102° |
| 2026-04-25 18:21 | 63.75437 | -36.70270 | 41011 ft | 495 kts | 103° |
| 2026-04-25 18:22 | 63.74103 | -36.54974 | 41014 ft | 495 kts | 103° |
| 2026-04-25 18:22 | 63.72757 | -36.39743 | 41014 ft | 496 kts | 103° |
| 2026-04-25 18:23 | 63.71390 | -36.24469 | 41011 ft | 496 kts | 103° |
| 2026-04-25 18:23 | 63.70015 | -36.09297 | 41012 ft | 496 kts | 103° |
| 2026-04-25 18:24 | 63.68617 | -35.94062 | 41005 ft | 496 kts | 103° |
| 2026-04-25 18:24 | 63.67207 | -35.78892 | 41009 ft | 493 kts | 104° |
| 2026-04-25 18:25 | 63.66017 | -35.66224 | 41012 ft | 493 kts | 104° |
| 2026-04-25 18:25 | 63.64592 | -35.51231 | 41011 ft | 493 kts | 104° |
| 2026-04-25 18:26 | 63.63143 | -35.36161 | 41012 ft | 493 kts | 104° |
| 2026-04-25 18:26 | 63.61677 | -35.21103 | 41007 ft | 493 kts | 104° |
| 2026-04-25 18:27 | 63.60195 | -35.06050 | 41013 ft | 494 kts | 104° |
| 2026-04-25 18:27 | 63.58696 | -34.90999 | 41013 ft | 494 kts | 104° |
| 2026-04-25 18:28 | 63.57182 | -34.75971 | 41014 ft | 494 kts | 105° |
| 2026-04-25 18:28 | 63.55651 | -34.60946 | 41012 ft | 493 kts | 105° |
| 2026-04-25 18:29 | 63.53326 | -34.38459 | 41019 ft | 493 kts | 105° |
| 2026-04-25 18:30 | 63.50170 | -34.08505 | 41017 ft | 494 kts | 105° |
| 2026-04-25 18:30 | 63.48568 | -33.93550 | 41017 ft | 493 kts | 105° |
| 2026-04-25 18:31 | 63.46960 | -33.78694 | 41018 ft | 490 kts | 105° |
| 2026-04-25 18:31 | 63.45341 | -33.63908 | 41018 ft | 489 kts | 106° |
| 2026-04-25 18:32 | 63.43707 | -33.49136 | 41021 ft | 489 kts | 106° |
| 2026-04-25 18:32 | 63.42060 | -33.34394 | 41020 ft | 489 kts | 106° |
| 2026-04-25 18:33 | 63.40396 | -33.19660 | 41026 ft | 489 kts | 106° |
| 2026-04-25 18:33 | 63.38717 | -33.04941 | 41026 ft | 489 kts | 106° |
| 2026-04-25 18:34 | 63.37036 | -32.90354 | 41026 ft | 488 kts | 106° |
| 2026-04-25 18:34 | 63.35335 | -32.75736 | 41027 ft | 487 kts | 106° |
| 2026-04-25 18:35 | 63.33619 | -32.61144 | 41026 ft | 487 kts | 106° |
| 2026-04-25 18:35 | 63.31890 | -32.46573 | 41026 ft | 487 kts | 107° |
| 2026-04-25 18:36 | 63.30142 | -32.31998 | 41025 ft | 487 kts | 107° |
| 2026-04-25 18:36 | 63.28382 | -32.17452 | 41027 ft | 487 kts | 107° |
| 2026-04-25 18:37 | 63.26606 | -32.02924 | 41026 ft | 487 kts | 107° |
| 2026-04-25 18:37 | 63.24820 | -31.88446 | 41028 ft | 486 kts | 107° |
| 2026-04-25 18:38 | 63.23021 | -31.74001 | 41026 ft | 486 kts | 107° |
| 2026-04-25 18:38 | 63.21204 | -31.59546 | 41024 ft | 486 kts | 107° |
| 2026-04-25 18:39 | 63.19373 | -31.45122 | 41027 ft | 486 kts | 107° |
| 2026-04-25 18:39 | 63.17527 | -31.30707 | 41030 ft | 486 kts | 107° |
| 2026-04-25 18:40 | 63.15679 | -31.16406 | 41032 ft | 486 kts | 108° |
| 2026-04-25 18:40 | 63.13806 | -31.02052 | 41033 ft | 485 kts | 107° |
| 2026-04-25 18:41 | 63.11923 | -30.87739 | 41028 ft | 485 kts | 108° |
| 2026-04-25 18:41 | 63.10027 | -30.73458 | 41032 ft | 485 kts | 108° |
| 2026-04-25 18:42 | 63.08423 | -30.61469 | 41027 ft | 486 kts | 108° |
| 2026-04-25 18:42 | 63.06182 | -30.44876 | 41032 ft | 486 kts | 108° |
| 2026-04-25 18:43 | 63.04236 | -30.30599 | 41029 ft | 486 kts | 108° |
| 2026-04-25 18:43 | 63.02278 | -30.16366 | 41025 ft | 486 kts | 108° |
| 2026-04-25 18:44 | 63.00578 | -30.01990 | 41033 ft | 486 kts | 99° |
| 2026-04-25 18:44 | 63.00415 | -29.87119 | 41030 ft | 488 kts | 88° |
| 2026-04-25 18:45 | 63.00877 | -29.72213 | 41045 ft | 489 kts | 86° |
| 2026-04-25 18:45 | 63.01422 | -29.57272 | 41035 ft | 490 kts | 86° |
| 2026-04-25 18:46 | 63.01931 | -29.42323 | 41030 ft | 490 kts | 87° |
| 2026-04-25 18:46 | 63.02398 | -29.27383 | 41033 ft | 490 kts | 87° |
| 2026-04-25 18:47 | 63.02841 | -29.12410 | 41041 ft | 489 kts | 88° |
| 2026-04-25 18:47 | 63.03267 | -28.97440 | 41039 ft | 489 kts | 88° |
| 2026-04-25 18:48 | 63.03679 | -28.82463 | 41019 ft | 490 kts | 88° |
| 2026-04-25 18:48 | 63.04076 | -28.67460 | 41038 ft | 491 kts | 88° |
| 2026-04-25 18:49 | 63.04458 | -28.52443 | 41031 ft | 490 kts | 88° |
| 2026-04-25 18:49 | 63.04823 | -28.37460 | 41037 ft | 489 kts | 88° |
| 2026-04-25 18:50 | 63.05172 | -28.22497 | 41034 ft | 489 kts | 88° |
| 2026-04-25 18:50 | 63.05504 | -28.07527 | 41036 ft | 489 kts | 88° |
| 2026-04-25 18:51 | 63.05717 | -27.97586 | 41036 ft | 490 kts | 89° |
| 2026-04-25 18:51 | 63.06122 | -27.77608 | 41037 ft | 490 kts | 89° |
| 2026-04-25 18:52 | 63.06408 | -27.62593 | 41037 ft | 490 kts | 89° |
| 2026-04-25 18:52 | 63.06678 | -27.47585 | 41040 ft | 490 kts | 89° |
| 2026-04-25 18:53 | 63.06932 | -27.32574 | 41032 ft | 490 kts | 89° |
| 2026-04-25 18:53 | 63.07171 | -27.17531 | 41043 ft | 491 kts | 89° |
| 2026-04-25 18:54 | 63.07499 | -26.94925 | 41042 ft | 491 kts | 89° |
| 2026-04-25 18:55 | 63.07698 | -26.79859 | 41046 ft | 491 kts | 89° |
| 2026-04-25 18:55 | 63.07881 | -26.64810 | 41045 ft | 490 kts | 90° |
| 2026-04-25 18:56 | 63.08048 | -26.49787 | 41038 ft | 490 kts | 90° |
| 2026-04-25 18:56 | 63.08199 | -26.34748 | 41045 ft | 491 kts | 90° |
| 2026-04-25 18:57 | 63.08334 | -26.19643 | 41045 ft | 492 kts | 90° |
| 2026-04-25 18:57 | 63.08453 | -26.04554 | 41048 ft | 492 kts | 90° |
| 2026-04-25 18:58 | 63.08556 | -25.89476 | 41048 ft | 492 kts | 90° |
| 2026-04-25 18:58 | 63.08681 | -25.66838 | 41048 ft | 492 kts | 91° |
| 2026-04-25 18:59 | 63.08791 | -25.36595 | 41056 ft | 493 kts | 91° |
| 2026-04-25 19:00 | 63.08831 | -25.13977 | 41062 ft | 494 kts | 91° |
| 2026-04-25 19:01 | 63.08835 | -24.91164 | 41057 ft | 492 kts | 91° |
| 2026-04-25 19:01 | 63.08818 | -24.76048 | 41062 ft | 492 kts | 91° |
| 2026-04-25 19:02 | 63.08761 | -24.53456 | 41060 ft | 493 kts | 92° |
| 2026-04-25 19:03 | 63.08692 | -24.35739 | 41064 ft | 493 kts | 92° |
| 2026-04-25 19:03 | 63.08587 | -24.15568 | 41071 ft | 493 kts | 92° |
| 2026-04-25 19:04 | 63.08433 | -23.92849 | 41068 ft | 493 kts | 92° |
| 2026-04-25 19:05 | 63.08173 | -23.62566 | 41074 ft | 493 kts | 92° |
| 2026-04-25 19:06 | 63.08019 | -23.47438 | 41071 ft | 493 kts | 93° |
| 2026-04-25 19:06 | 63.07756 | -23.24741 | 41072 ft | 493 kts | 93° |
| 2026-04-25 19:07 | 63.07458 | -23.02057 | 41079 ft | 493 kts | 93° |
| 2026-04-25 19:08 | 63.07160 | -22.81830 | 41086 ft | 493 kts | 93° |
| 2026-04-25 19:09 | 63.06708 | -22.54170 | 41084 ft | 493 kts | 94° |
| 2026-04-25 19:10 | 63.06250 | -22.29054 | 41090 ft | 493 kts | 94° |
| 2026-04-25 19:10 | 63.05952 | -22.13916 | 41099 ft | 495 kts | 94° |
| 2026-04-25 19:11 | 63.05636 | -21.98653 | 41098 ft | 495 kts | 94° |
| 2026-04-25 19:11 | 63.05305 | -21.83493 | 41101 ft | 495 kts | 94° |
| 2026-04-25 19:12 | 63.04959 | -21.68348 | 41103 ft | 495 kts | 94° |
| 2026-04-25 19:12 | 63.04597 | -21.53202 | 41102 ft | 495 kts | 95° |
| 2026-04-25 19:13 | 63.04217 | -21.38050 | 41112 ft | 497 kts | 95° |
| 2026-04-25 19:13 | 63.03819 | -21.22815 | 41109 ft | 498 kts | 95° |
| 2026-04-25 19:14 | 63.03406 | -21.07583 | 41117 ft | 498 kts | 95° |
| 2026-04-25 19:14 | 63.02976 | -20.92338 | 41119 ft | 498 kts | 95° |
| 2026-04-25 19:15 | 63.02531 | -20.77206 | 41124 ft | 498 kts | 95° |
| 2026-04-25 19:15 | 63.02069 | -20.61986 | 41126 ft | 499 kts | 95° |
| 2026-04-25 19:16 | 63.01587 | -20.46737 | 41129 ft | 500 kts | 96° |
| 2026-04-25 19:16 | 63.01088 | -20.31432 | 41129 ft | 500 kts | 95° |
| 2026-04-25 19:17 | 63.00572 | -20.16152 | 41138 ft | 500 kts | 96° |
| 2026-04-25 19:17 | 63.00107 | -20.00877 | 41136 ft | 501 kts | 91° |
| 2026-04-25 19:18 | 63.00232 | -19.85539 | 41147 ft | 502 kts | 89° |
| 2026-04-25 19:18 | 63.00477 | -19.70181 | 41151 ft | 503 kts | 89° |
| 2026-04-25 19:19 | 63.00728 | -19.54804 | 41141 ft | 503 kts | 89° |
| 2026-04-25 19:19 | 63.00953 | -19.39447 | 41153 ft | 501 kts | 90° |
| 2026-04-25 19:20 | 63.01151 | -19.24120 | 41162 ft | 500 kts | 90° |
| 2026-04-25 19:20 | 63.01329 | -19.08826 | 41160 ft | 500 kts | 90° |
| 2026-04-25 19:21 | 63.01490 | -18.93523 | 41170 ft | 500 kts | 90° |
| 2026-04-25 19:21 | 63.01705 | -18.70579 | 41170 ft | 500 kts | 90° |
| 2026-04-25 19:22 | 63.01827 | -18.55265 | 41175 ft | 499 kts | 90° |
| 2026-04-25 19:23 | 63.01979 | -18.32330 | 41175 ft | 499 kts | 90° |
| 2026-04-25 19:23 | 63.02093 | -18.09479 | 41178 ft | 500 kts | 90° |
| 2026-04-25 19:24 | 63.02149 | -17.94172 | 41181 ft | 500 kts | 90° |
| 2026-04-25 19:25 | 63.02212 | -17.63574 | 41187 ft | 500 kts | 91° |
| 2026-04-25 19:25 | 63.02218 | -17.48263 | 41185 ft | 500 kts | 91° |
| 2026-04-25 19:26 | 63.02208 | -17.32942 | 41189 ft | 500 kts | 91° |
| 2026-04-25 19:26 | 63.02181 | -17.17624 | 41189 ft | 500 kts | 91° |
| 2026-04-25 19:27 | 63.02146 | -17.04798 | 41181 ft | 500 kts | 91° |
| 2026-04-25 19:27 | 63.02078 | -16.87017 | 41192 ft | 499 kts | 91° |
| 2026-04-25 19:28 | 63.02002 | -16.71747 | 41192 ft | 499 kts | 92° |
| 2026-04-25 19:28 | 63.01909 | -16.56450 | 41193 ft | 499 kts | 92° |
| 2026-04-25 19:29 | 63.01800 | -16.41144 | 41198 ft | 499 kts | 92° |
| 2026-04-25 19:29 | 63.01674 | -16.25856 | 41199 ft | 499 kts | 92° |
| 2026-04-25 19:30 | 63.01532 | -16.10562 | 41207 ft | 499 kts | 92° |
| 2026-04-25 19:30 | 63.01373 | -15.95281 | 41206 ft | 500 kts | 92° |
| 2026-04-25 19:31 | 63.01198 | -15.79998 | 41208 ft | 500 kts | 92° |
| 2026-04-25 19:31 | 63.01006 | -15.64705 | 41208 ft | 499 kts | 93° |
| 2026-04-25 19:32 | 63.00798 | -15.49406 | 41208 ft | 499 kts | 93° |
| 2026-04-25 19:32 | 63.00650 | -15.39196 | 41208 ft | 499 kts | 93° |
| 2026-04-25 19:33 | 63.00333 | -15.18866 | 41205 ft | 499 kts | 93° |
| 2026-04-25 19:33 | 62.99926 | -15.03611 | 41221 ft | 498 kts | 100° |
| 2026-04-25 19:34 | 62.98097 | -14.88987 | 41211 ft | 496 kts | 111° |
| 2026-04-25 19:34 | 62.95642 | -14.74833 | 41216 ft | 495 kts | 113° |
| 2026-04-25 19:35 | 62.93082 | -14.60820 | 41218 ft | 494 kts | 114° |
| 2026-04-25 19:35 | 62.90525 | -14.46834 | 41223 ft | 494 kts | 114° |
| 2026-04-25 19:36 | 62.87976 | -14.32841 | 41223 ft | 494 kts | 113° |
| 2026-04-25 19:36 | 62.85419 | -14.18849 | 41222 ft | 494 kts | 114° |
| 2026-04-25 19:37 | 62.82868 | -14.04979 | 41231 ft | 495 kts | 114° |
| 2026-04-25 19:37 | 62.80284 | -13.91046 | 41232 ft | 494 kts | 114° |
| 2026-04-25 19:38 | 62.77687 | -13.77139 | 41236 ft | 495 kts | 114° |
| 2026-04-25 19:38 | 62.75074 | -13.63251 | 41233 ft | 494 kts | 114° |
| 2026-04-25 19:39 | 62.72456 | -13.49429 | 41235 ft | 493 kts | 115° |
| 2026-04-25 19:39 | 62.69825 | -13.35640 | 41243 ft | 493 kts | 114° |
| 2026-04-25 19:40 | 62.67177 | -13.21855 | 41241 ft | 493 kts | 115° |
| 2026-04-25 19:40 | 62.64520 | -13.08116 | 41243 ft | 493 kts | 115° |
| 2026-04-25 19:41 | 62.61845 | -12.94377 | 41244 ft | 493 kts | 115° |
| 2026-04-25 19:41 | 62.60069 | -12.85309 | 41243 ft | 493 kts | 115° |
| 2026-04-25 19:42 | 62.56461 | -12.67010 | 41249 ft | 493 kts | 115° |
| 2026-04-25 19:42 | 62.53750 | -12.53369 | 41247 ft | 492 kts | 115° |
| 2026-04-25 19:43 | 62.51032 | -12.39780 | 41255 ft | 491 kts | 115° |
| 2026-04-25 19:43 | 62.48300 | -12.26217 | 41254 ft | 491 kts | 115° |
| 2026-04-25 19:44 | 62.45560 | -12.12697 | 41252 ft | 491 kts | 115° |
| 2026-04-25 19:44 | 62.42824 | -11.99290 | 41257 ft | 491 kts | 116° |
| 2026-04-25 19:45 | 62.40056 | -11.85818 | 41257 ft | 491 kts | 116° |
| 2026-04-25 19:45 | 62.37254 | -11.72264 | 41260 ft | 491 kts | 116° |
| 2026-04-25 19:46 | 62.34459 | -11.58835 | 41256 ft | 492 kts | 116° |
| 2026-04-25 19:46 | 62.31668 | -11.45504 | 41271 ft | 491 kts | 116° |
| 2026-04-25 19:47 | 62.28856 | -11.32162 | 41278 ft | 490 kts | 116° |
| 2026-04-25 19:47 | 62.26025 | -11.18824 | 41261 ft | 490 kts | 117° |
| 2026-04-25 19:48 | 62.23183 | -11.05514 | 41270 ft | 490 kts | 116° |
| 2026-04-25 19:48 | 62.20330 | -10.92237 | 41285 ft | 490 kts | 117° |
| 2026-04-25 19:49 | 62.18416 | -10.83377 | 41279 ft | 491 kts | 117° |
| 2026-04-25 19:49 | 62.14583 | -10.65748 | 41291 ft | 491 kts | 117° |
| 2026-04-25 19:50 | 62.10730 | -10.48170 | 41281 ft | 490 kts | 117° |
| 2026-04-25 19:51 | 62.07810 | -10.34943 | 41289 ft | 489 kts | 117° |
| 2026-04-25 19:51 | 62.04915 | -10.21914 | 41289 ft | 489 kts | 117° |
| 2026-04-25 19:52 | 62.01992 | -10.08839 | 41294 ft | 489 kts | 117° |
| 2026-04-25 19:52 | 61.99793 | -9.95023 | 41294 ft | 493 kts | 102° |
| 2026-04-25 19:53 | 61.98722 | -9.80682 | 41297 ft | 495 kts | 99° |
| 2026-04-25 19:53 | 61.97841 | -9.66151 | 41302 ft | 495 kts | 99° |
| 2026-04-25 19:54 | 61.96956 | -9.51651 | 41304 ft | 495 kts | 99° |
| 2026-04-25 19:54 | 61.96027 | -9.37154 | 41295 ft | 495 kts | 99° |
| 2026-04-25 19:55 | 61.95067 | -9.22667 | 41304 ft | 495 kts | 99° |
| 2026-04-25 19:55 | 61.94089 | -9.08185 | 41309 ft | 495 kts | 100° |
| 2026-04-25 19:56 | 61.93095 | -8.93697 | 41304 ft | 495 kts | 100° |
| 2026-04-25 19:56 | 61.92091 | -8.79260 | 41316 ft | 494 kts | 100° |
| 2026-04-25 19:57 | 61.91073 | -8.64871 | 41310 ft | 493 kts | 100° |
| 2026-04-25 19:57 | 61.90039 | -8.50472 | 41315 ft | 494 kts | 100° |
| 2026-04-25 19:58 | 61.88990 | -8.36071 | 41313 ft | 494 kts | 100° |
| 2026-04-25 19:58 | 61.87925 | -8.21669 | 41319 ft | 494 kts | 101° |
| 2026-04-25 19:59 | 61.86852 | -8.07384 | 41320 ft | 494 kts | 101° |
| 2026-04-25 19:59 | 61.85758 | -7.93010 | 41320 ft | 494 kts | 101° |
| 2026-04-25 20:00 | 61.84648 | -7.78645 | 41313 ft | 494 kts | 101° |
| 2026-04-25 20:00 | 61.83523 | -7.64290 | 41320 ft | 494 kts | 101° |
| 2026-04-25 20:01 | 61.81810 | -7.42798 | 41316 ft | 494 kts | 101° |
| 2026-04-25 20:01 | 61.80647 | -7.28463 | 41313 ft | 494 kts | 101° |
| 2026-04-25 20:02 | 61.79470 | -7.14150 | 41317 ft | 494 kts | 101° |
| 2026-04-25 20:02 | 61.78276 | -6.99823 | 41315 ft | 496 kts | 101° |
| 2026-04-25 20:03 | 61.77065 | -6.85480 | 41316 ft | 496 kts | 102° |
| 2026-04-25 20:03 | 61.75840 | -6.71146 | 41319 ft | 496 kts | 102° |
| 2026-04-25 20:04 | 61.74602 | -6.56851 | 41322 ft | 494 kts | 102° |
| 2026-04-25 20:04 | 61.73351 | -6.42599 | 41326 ft | 494 kts | 102° |
| 2026-04-25 20:05 | 61.72082 | -6.28326 | 41329 ft | 495 kts | 102° |
| 2026-04-25 20:05 | 61.70796 | -6.14031 | 41334 ft | 496 kts | 102° |
| 2026-04-25 20:06 | 61.69496 | -5.99755 | 41333 ft | 496 kts | 102° |
| 2026-04-25 20:06 | 61.68187 | -5.85556 | 41332 ft | 496 kts | 102° |
| 2026-04-25 20:07 | 61.66847 | -5.71199 | 41332 ft | 496 kts | 102° |
| 2026-04-25 20:07 | 61.65507 | -5.57030 | 41333 ft | 498 kts | 102° |
| 2026-04-25 20:08 | 61.64141 | -5.42733 | 41334 ft | 499 kts | 102° |
| 2026-04-25 20:08 | 61.62759 | -5.28436 | 41336 ft | 499 kts | 102° |
| 2026-04-25 20:09 | 61.61361 | -5.14143 | 41335 ft | 499 kts | 102° |
| 2026-04-25 20:09 | 61.59949 | -4.99876 | 41339 ft | 499 kts | 103° |
| 2026-04-25 20:10 | 61.58520 | -4.85606 | 41335 ft | 500 kts | 102° |
| 2026-04-25 20:10 | 61.57074 | -4.71317 | 41344 ft | 501 kts | 102° |
| 2026-04-25 20:11 | 61.55611 | -4.57019 | 41338 ft | 501 kts | 103° |
| 2026-04-25 20:11 | 61.54143 | -4.42834 | 41338 ft | 501 kts | 103° |
| 2026-04-25 20:12 | 61.52650 | -4.28573 | 41340 ft | 501 kts | 103° |
| 2026-04-25 20:12 | 61.51644 | -4.19050 | 41346 ft | 501 kts | 103° |
| 2026-04-25 20:13 | 61.49615 | -4.00036 | 41335 ft | 503 kts | 103° |
| 2026-04-25 20:13 | 61.48072 | -3.85761 | 41341 ft | 503 kts | 103° |
| 2026-04-25 20:14 | 61.46512 | -3.71488 | 41340 ft | 503 kts | 103° |
| 2026-04-25 20:14 | 61.44939 | -3.57239 | 41341 ft | 503 kts | 103° |
| 2026-04-25 20:15 | 61.43349 | -3.42991 | 41343 ft | 504 kts | 103° |
| 2026-04-25 20:15 | 61.41742 | -3.28731 | 41329 ft | 505 kts | 103° |
| 2026-04-25 20:16 | 61.40117 | -3.14461 | 41336 ft | 505 kts | 103° |
| 2026-04-25 20:16 | 61.38477 | -3.00199 | 41329 ft | 505 kts | 103° |
| 2026-04-25 20:17 | 61.36821 | -2.85955 | 41339 ft | 505 kts | 103° |
| 2026-04-25 20:17 | 61.35150 | -2.71712 | 41328 ft | 506 kts | 103° |
| 2026-04-25 20:18 | 61.33461 | -2.57464 | 41344 ft | 507 kts | 103° |
| 2026-04-25 20:18 | 61.31752 | -2.43194 | 41336 ft | 507 kts | 103° |
| 2026-04-25 20:19 | 61.30032 | -2.28968 | 41336 ft | 506 kts | 104° |
| 2026-04-25 20:19 | 61.28301 | -2.14795 | 41335 ft | 505 kts | 104° |
| 2026-04-25 20:20 | 61.26555 | -2.00637 | 41326 ft | 506 kts | 104° |
| 2026-04-25 20:20 | 61.24791 | -1.86466 | 41340 ft | 507 kts | 104° |
| 2026-04-25 20:21 | 61.23023 | -1.72381 | 41341 ft | 507 kts | 104° |
| 2026-04-25 20:21 | 61.21227 | -1.58223 | 41334 ft | 507 kts | 104° |
| 2026-04-25 20:22 | 61.20019 | -1.48769 | 41321 ft | 507 kts | 104° |
| 2026-04-25 20:22 | 61.17589 | -1.29933 | 41333 ft | 508 kts | 104° |
| 2026-04-25 20:23 | 61.15744 | -1.15785 | 41332 ft | 509 kts | 104° |
| 2026-04-25 20:23 | 61.13879 | -1.01608 | 41327 ft | 510 kts | 104° |
| 2026-04-25 20:24 | 61.12001 | -0.87463 | 41328 ft | 510 kts | 104° |
| 2026-04-25 20:24 | 61.10109 | -0.73338 | 41324 ft | 510 kts | 104° |
| 2026-04-25 20:25 | 61.08200 | -0.59217 | 41326 ft | 510 kts | 104° |
| 2026-04-25 20:25 | 61.06277 | -0.45122 | 41325 ft | 510 kts | 105° |
| 2026-04-25 20:26 | 61.04340 | -0.31045 | 41325 ft | 510 kts | 105° |
| 2026-04-25 20:26 | 61.02391 | -0.16999 | 41327 ft | 508 kts | 105° |
| 2026-04-25 20:27 | 61.00121 | -0.03226 | 41330 ft | 508 kts | 115° |
| 2026-04-25 20:27 | 60.96230 | 0.08784 | 41318 ft | 510 kts | 130° |
| 2026-04-25 20:28 | 60.91533 | 0.19770 | 41321 ft | 512 kts | 133° |
| 2026-04-25 20:28 | 60.86713 | 0.30515 | 41317 ft | 512 kts | 133° |
| 2026-04-25 20:29 | 60.81894 | 0.41279 | 41317 ft | 512 kts | 133° |
| 2026-04-25 20:29 | 60.77097 | 0.52049 | 41317 ft | 511 kts | 133° |
| 2026-04-25 20:30 | 60.72300 | 0.62805 | 41313 ft | 511 kts | 133° |
| 2026-04-25 20:30 | 60.67504 | 0.73511 | 41325 ft | 511 kts | 132° |
| 2026-04-25 20:31 | 60.62712 | 0.84153 | 41311 ft | 513 kts | 132° |
| 2026-04-25 20:31 | 60.57863 | 0.94869 | 41311 ft | 514 kts | 133° |
| 2026-04-25 20:32 | 60.53014 | 1.05534 | 41311 ft | 514 kts | 133° |
| 2026-04-25 20:32 | 60.48980 | 1.14368 | 41308 ft | 514 kts | 133° |
| 2026-04-25 20:33 | 60.44113 | 1.24979 | 41305 ft | 513 kts | 133° |
| 2026-04-25 20:33 | 60.40070 | 1.33756 | 41308 ft | 512 kts | 133° |
| 2026-04-25 20:34 | 60.34377 | 1.46053 | 41300 ft | 514 kts | 133° |
| 2026-04-25 20:34 | 60.29478 | 1.56586 | 41300 ft | 515 kts | 133° |
| 2026-04-25 20:35 | 60.24558 | 1.67113 | 41298 ft | 515 kts | 133° |
| 2026-04-25 20:35 | 60.19637 | 1.77593 | 41298 ft | 515 kts | 133° |
| 2026-04-25 20:36 | 60.14707 | 1.88043 | 41302 ft | 515 kts | 133° |
| 2026-04-25 20:36 | 60.09778 | 1.98442 | 41294 ft | 514 kts | 133° |
| 2026-04-25 20:37 | 60.04837 | 2.08817 | 41296 ft | 516 kts | 133° |
| 2026-04-25 20:37 | 59.99864 | 2.19213 | 41286 ft | 518 kts | 133° |
| 2026-04-25 20:38 | 59.94877 | 2.29590 | 41290 ft | 518 kts | 133° |
| 2026-04-25 20:38 | 59.89884 | 2.39931 | 41279 ft | 518 kts | 133° |
| 2026-04-25 20:39 | 59.84879 | 2.50246 | 41282 ft | 517 kts | 133° |
| 2026-04-25 20:39 | 59.80722 | 2.58779 | 41281 ft | 515 kts | 133° |
| 2026-04-25 20:40 | 59.74879 | 2.70716 | 41272 ft | 517 kts | 133° |
| 2026-04-25 20:40 | 59.69847 | 2.80949 | 41270 ft | 519 kts | 133° |
| 2026-04-25 20:41 | 59.64798 | 2.91169 | 41277 ft | 519 kts | 133° |
| 2026-04-25 20:41 | 59.59740 | 3.01359 | 41276 ft | 519 kts | 134° |
| 2026-04-25 20:42 | 59.54674 | 3.11519 | 41285 ft | 519 kts | 134° |
| 2026-04-25 20:42 | 59.49646 | 3.21557 | 41267 ft | 517 kts | 134° |
| 2026-04-25 20:43 | 59.44578 | 3.31627 | 41276 ft | 519 kts | 134° |
| 2026-04-25 20:43 | 59.39474 | 3.41726 | 41270 ft | 521 kts | 134° |
| 2026-04-25 20:44 | 59.34356 | 3.51806 | 41271 ft | 522 kts | 134° |
| 2026-04-25 20:44 | 59.29224 | 3.61867 | 41266 ft | 522 kts | 134° |
| 2026-04-25 20:45 | 59.24091 | 3.71886 | 41261 ft | 521 kts | 134° |
| 2026-04-25 20:45 | 59.18960 | 3.81854 | 41259 ft | 520 kts | 134° |
| 2026-04-25 20:46 | 59.13827 | 3.91780 | 41265 ft | 522 kts | 134° |
| 2026-04-25 20:46 | 59.08648 | 4.01755 | 41256 ft | 525 kts | 134° |
| 2026-04-25 20:47 | 59.03444 | 4.11731 | 41250 ft | 525 kts | 134° |
| 2026-04-25 20:47 | 58.98237 | 4.21667 | 41249 ft | 525 kts | 134° |
| 2026-04-25 20:48 | 58.93029 | 4.31561 | 41236 ft | 524 kts | 134° |
| 2026-04-25 20:48 | 58.87817 | 4.41417 | 41243 ft | 523 kts | 134° |
| 2026-04-25 20:49 | 58.82594 | 4.51251 | 41241 ft | 525 kts | 134° |
| 2026-04-25 20:49 | 58.77346 | 4.61091 | 41235 ft | 527 kts | 134° |
| 2026-04-25 20:50 | 58.72109 | 4.70865 | 41236 ft | 527 kts | 135° |
| 2026-04-25 20:50 | 58.66841 | 4.80652 | 41221 ft | 527 kts | 135° |
| 2026-04-25 20:51 | 58.61563 | 4.90415 | 41221 ft | 527 kts | 135° |
| 2026-04-25 20:51 | 58.56278 | 5.00149 | 41223 ft | 527 kts | 135° |
| 2026-04-25 20:52 | 58.51834 | 5.08300 | 41208 ft | 530 kts | 135° |
| 2026-04-25 20:52 | 58.45611 | 5.19665 | 41205 ft | 533 kts | 135° |
| 2026-04-25 20:53 | 58.40239 | 5.29426 | 41195 ft | 533 kts | 135° |
| 2026-04-25 20:53 | 58.34857 | 5.39165 | 41189 ft | 533 kts | 135° |
| 2026-04-25 20:54 | 58.29478 | 5.48853 | 41186 ft | 532 kts | 135° |
| 2026-04-25 20:54 | 58.24094 | 5.58509 | 41192 ft | 532 kts | 135° |
| 2026-04-25 20:55 | 58.18747 | 5.68058 | 41181 ft | 532 kts | 135° |
| 2026-04-25 20:55 | 58.13316 | 5.77712 | 41181 ft | 532 kts | 135° |
| 2026-04-25 20:56 | 58.07916 | 5.87272 | 41186 ft | 532 kts | 136° |
| 2026-04-25 20:56 | 58.02513 | 5.96793 | 41185 ft | 530 kts | 136° |
| 2026-04-25 20:57 | 57.97156 | 6.06194 | 41195 ft | 529 kts | 136° |
| 2026-04-25 20:57 | 57.91750 | 6.15639 | 41184 ft | 530 kts | 135° |
| 2026-04-25 20:58 | 57.86324 | 6.25081 | 41183 ft | 532 kts | 136° |
| 2026-04-25 20:58 | 57.80882 | 6.34508 | 41175 ft | 532 kts | 136° |
| 2026-04-25 20:59 | 57.75434 | 6.43906 | 41168 ft | 532 kts | 136° |
| 2026-04-25 20:59 | 57.69995 | 6.53247 | 41182 ft | 530 kts | 136° |
| 2026-04-25 21:00 | 57.66355 | 6.59475 | 41166 ft | 530 kts | 136° |
| 2026-04-25 21:01 | 57.56366 | 6.76481 | 41166 ft | 534 kts | 136° |
| 2026-04-25 21:01 | 57.50872 | 6.85779 | 41167 ft | 534 kts | 136° |
| 2026-04-25 21:02 | 57.45364 | 6.95058 | 41146 ft | 534 kts | 136° |
| 2026-04-25 21:02 | 57.39864 | 7.04285 | 41159 ft | 532 kts | 136° |
| 2026-04-25 21:03 | 57.34378 | 7.13452 | 41158 ft | 531 kts | 136° |
| 2026-04-25 21:03 | 57.28879 | 7.22598 | 41151 ft | 533 kts | 136° |
| 2026-04-25 21:04 | 57.23344 | 7.31771 | 41151 ft | 535 kts | 136° |
| 2026-04-25 21:04 | 57.17796 | 7.40924 | 41143 ft | 535 kts | 136° |
| 2026-04-25 21:05 | 57.12250 | 7.50035 | 41147 ft | 534 kts | 136° |
| 2026-04-25 21:05 | 57.06704 | 7.59108 | 41140 ft | 533 kts | 137° |
| 2026-04-25 21:06 | 57.01162 | 7.68127 | 41172 ft | 533 kts | 137° |
| 2026-04-25 21:06 | 56.95537 | 7.77045 | 41141 ft | 537 kts | 142° |
| 2026-04-25 21:07 | 56.89081 | 7.83982 | 41139 ft | 539 kts | 154° |
| 2026-04-25 21:07 | 56.82264 | 7.89720 | 41136 ft | 539 kts | 156° |
| 2026-04-25 21:08 | 56.75405 | 7.95199 | 41132 ft | 538 kts | 156° |
| 2026-04-25 21:08 | 56.68603 | 8.00671 | 41135 ft | 537 kts | 156° |
| 2026-04-25 21:09 | 56.58320 | 8.09019 | 41132 ft | 537 kts | 156° |
| 2026-04-25 21:09 | 56.51503 | 8.14545 | 41139 ft | 537 kts | 156° |
| 2026-04-25 21:10 | 56.44703 | 8.20033 | 41137 ft | 539 kts | 156° |
| 2026-04-25 21:10 | 56.37837 | 8.25549 | 41137 ft | 540 kts | 156° |
| 2026-04-25 21:11 | 56.30969 | 8.31046 | 41135 ft | 540 kts | 156° |
| 2026-04-25 21:11 | 56.24106 | 8.36515 | 41132 ft | 538 kts | 156° |
| 2026-04-25 21:12 | 56.17256 | 8.41953 | 41132 ft | 537 kts | 156° |
| 2026-04-25 21:12 | 56.12679 | 8.45575 | 41132 ft | 537 kts | 156° |
| 2026-04-25 21:13 | 56.03575 | 8.52752 | 41135 ft | 537 kts | 156° |
| 2026-04-25 21:13 | 55.96721 | 8.58130 | 41137 ft | 539 kts | 156° |
| 2026-04-25 21:14 | 55.89839 | 8.63509 | 41131 ft | 539 kts | 156° |
| 2026-04-25 21:14 | 55.82966 | 8.68861 | 41124 ft | 539 kts | 156° |
| 2026-04-25 21:15 | 55.76131 | 8.74161 | 41119 ft | 539 kts | 156° |
| 2026-04-25 21:15 | 55.70369 | 8.78615 | 41114 ft | 539 kts | 157° |
| 2026-04-25 21:16 | 55.63487 | 8.83915 | 41116 ft | 539 kts | 157° |
| 2026-04-25 21:16 | 55.56609 | 8.89191 | 41118 ft | 539 kts | 157° |
| 2026-04-25 21:17 | 55.49722 | 8.94455 | 41144 ft | 540 kts | 157° |
| 2026-04-25 21:17 | 55.42803 | 8.99723 | 41104 ft | 543 kts | 157° |
| 2026-04-25 21:18 | 55.35869 | 9.04981 | 41111 ft | 542 kts | 157° |
| 2026-04-25 21:18 | 55.28945 | 9.10213 | 41104 ft | 542 kts | 157° |
| 2026-04-25 21:19 | 55.22013 | 9.15430 | 41102 ft | 542 kts | 157° |
| 2026-04-25 21:19 | 55.15087 | 9.20623 | 41091 ft | 541 kts | 157° |
| 2026-04-25 21:20 | 55.09352 | 9.24908 | 41101 ft | 539 kts | 158° |
| 2026-04-25 21:20 | 55.01337 | 9.30874 | 41108 ft | 538 kts | 158° |
| 2026-04-25 21:21 | 54.94437 | 9.35990 | 41107 ft | 541 kts | 158° |
| 2026-04-25 21:21 | 54.87491 | 9.41120 | 41100 ft | 542 kts | 158° |
| 2026-04-25 21:22 | 54.80550 | 9.46228 | 41109 ft | 541 kts | 158° |
| 2026-04-25 21:22 | 54.73625 | 9.51305 | 41109 ft | 540 kts | 158° |
| 2026-04-25 21:23 | 54.66693 | 9.56367 | 41107 ft | 540 kts | 158° |
| 2026-04-25 21:23 | 54.59772 | 9.61403 | 41092 ft | 540 kts | 158° |
| 2026-04-25 21:24 | 54.52810 | 9.66146 | 41113 ft | 536 kts | 165° |
| 2026-04-25 21:24 | 54.45576 | 9.69230 | 41111 ft | 536 kts | 167° |
| 2026-04-25 21:25 | 54.38342 | 9.72625 | 41106 ft | 540 kts | 166° |
| 2026-04-25 21:25 | 54.31110 | 9.76057 | 41111 ft | 538 kts | 166° |
| 2026-04-25 21:26 | 54.23899 | 9.79405 | 41112 ft | 536 kts | 167° |
| 2026-04-25 21:26 | 54.16689 | 9.82699 | 41117 ft | 536 kts | 167° |
| 2026-04-25 21:27 | 54.09472 | 9.85976 | 41111 ft | 536 kts | 167° |
| 2026-04-25 21:27 | 54.02277 | 9.89233 | 41114 ft | 534 kts | 167° |
| 2026-04-25 21:28 | 53.95099 | 9.92473 | 41128 ft | 534 kts | 167° |
| 2026-04-25 21:28 | 53.87911 | 9.95706 | 41134 ft | 534 kts | 167° |
| 2026-04-25 21:29 | 53.80739 | 9.98921 | 41132 ft | 533 kts | 167° |
| 2026-04-25 21:29 | 53.73576 | 10.02121 | 41156 ft | 531 kts | 167° |
| 2026-04-25 21:30 | 53.66433 | 10.05300 | 41157 ft | 531 kts | 167° |
| 2026-04-25 21:30 | 53.60486 | 10.07939 | 41157 ft | 531 kts | 167° |
| 2026-04-25 21:31 | 53.52180 | 10.11610 | 41153 ft | 530 kts | 167° |
| 2026-04-25 21:31 | 53.45068 | 10.14743 | 41145 ft | 528 kts | 167° |
| 2026-04-25 21:32 | 53.37950 | 10.17867 | 41130 ft | 528 kts | 167° |
| 2026-04-25 21:32 | 53.30834 | 10.20980 | 41133 ft | 528 kts | 167° |
| 2026-04-25 21:33 | 53.23738 | 10.24074 | 41139 ft | 526 kts | 167° |
| 2026-04-25 21:33 | 53.16655 | 10.27151 | 41134 ft | 526 kts | 167° |
| 2026-04-25 21:34 | 53.09635 | 10.30777 | 41144 ft | 530 kts | 161° |
| 2026-04-25 21:34 | 53.02739 | 10.35120 | 41127 ft | 530 kts | 160° |
| 2026-04-25 21:35 | 52.95869 | 10.39601 | 41122 ft | 530 kts | 160° |
| 2026-04-25 21:35 | 52.88996 | 10.44054 | 41124 ft | 530 kts | 160° |
| 2026-04-25 21:36 | 52.82112 | 10.48468 | 41131 ft | 530 kts | 160° |
| 2026-04-25 21:36 | 52.75236 | 10.52848 | 41120 ft | 529 kts | 160° |
| 2026-04-25 21:37 | 52.69541 | 10.56463 | 41124 ft | 527 kts | 160° |
| 2026-04-25 21:37 | 52.61546 | 10.61522 | 41131 ft | 528 kts | 160° |
| 2026-04-25 21:38 | 52.54673 | 10.65855 | 41136 ft | 529 kts | 160° |
| 2026-04-25 21:38 | 52.47809 | 10.70172 | 41142 ft | 526 kts | 161° |
| 2026-04-25 21:39 | 52.40994 | 10.74442 | 41153 ft | 523 kts | 161° |
| 2026-04-25 21:39 | 52.34199 | 10.78684 | 41148 ft | 523 kts | 161° |
| 2026-04-25 21:40 | 52.27400 | 10.82913 | 41146 ft | 523 kts | 161° |
| 2026-04-25 21:40 | 52.20651 | 10.87099 | 41145 ft | 521 kts | 161° |
| 2026-04-25 21:41 | 52.13882 | 10.91285 | 41136 ft | 521 kts | 161° |
| 2026-04-25 21:41 | 52.07094 | 10.95467 | 41123 ft | 522 kts | 161° |
| 2026-04-25 21:42 | 52.00292 | 10.99644 | 41097 ft | 523 kts | 161° |
| 2026-04-25 21:42 | 51.93492 | 11.03808 | 41119 ft | 522 kts | 161° |
| 2026-04-25 21:43 | 51.86700 | 11.07954 | 41115 ft | 522 kts | 161° |
| 2026-04-25 21:43 | 51.79902 | 11.12089 | 41118 ft | 522 kts | 161° |
| 2026-04-25 21:44 | 51.73106 | 11.16209 | 41111 ft | 521 kts | 161° |
| 2026-04-25 21:45 | 51.62924 | 11.22359 | 41111 ft | 521 kts | 161° |
| 2026-04-25 21:45 | 51.56137 | 11.26441 | 41110 ft | 521 kts | 161° |
| 2026-04-25 21:46 | 51.49346 | 11.30512 | 41085 ft | 520 kts | 161° |
| 2026-04-25 21:46 | 51.42571 | 11.34561 | 41108 ft | 518 kts | 161° |
| 2026-04-25 21:47 | 51.35822 | 11.38582 | 41100 ft | 517 kts | 161° |
| 2026-04-25 21:47 | 51.29073 | 11.42590 | 41099 ft | 517 kts | 161° |
| 2026-04-25 21:48 | 51.22324 | 11.46585 | 41093 ft | 517 kts | 161° |
| 2026-04-25 21:48 | 51.15584 | 11.50563 | 41098 ft | 517 kts | 161° |
| 2026-04-25 21:49 | 51.08859 | 11.54519 | 41096 ft | 518 kts | 161° |
| 2026-04-25 21:49 | 51.02097 | 11.58485 | 41096 ft | 518 kts | 161° |
| 2026-04-25 21:50 | 50.95289 | 11.62466 | 41089 ft | 518 kts | 162° |
| 2026-04-25 21:50 | 50.88574 | 11.66380 | 41094 ft | 517 kts | 162° |
| 2026-04-25 21:51 | 50.81813 | 11.70309 | 41094 ft | 517 kts | 162° |
| 2026-04-25 21:51 | 50.75053 | 11.74225 | 41088 ft | 517 kts | 162° |
| 2026-04-25 21:52 | 50.68285 | 11.78133 | 41100 ft | 518 kts | 162° |
| 2026-04-25 21:52 | 50.61510 | 11.82033 | 41090 ft | 518 kts | 162° |
| 2026-04-25 21:53 | 50.54737 | 11.85920 | 41094 ft | 518 kts | 162° |
| 2026-04-25 21:53 | 50.47967 | 11.89794 | 41097 ft | 518 kts | 162° |
| 2026-04-25 21:54 | 50.41184 | 11.93663 | 41099 ft | 518 kts | 162° |
| 2026-04-25 21:54 | 50.34402 | 11.97520 | 41102 ft | 518 kts | 162° |
| 2026-04-25 21:55 | 50.27663 | 12.01341 | 41103 ft | 518 kts | 162° |
| 2026-04-25 21:55 | 50.20852 | 12.05192 | 41098 ft | 519 kts | 162° |
| 2026-04-25 21:56 | 50.14037 | 12.09031 | 41096 ft | 521 kts | 162° |
| 2026-04-25 21:56 | 50.07226 | 12.12858 | 41090 ft | 521 kts | 162° |
| 2026-04-25 21:57 | 50.00407 | 12.16678 | 41063 ft | 521 kts | 162° |
| 2026-04-25 21:57 | 49.93592 | 12.20484 | 41089 ft | 520 kts | 162° |
| 2026-04-25 21:58 | 49.86782 | 12.24277 | 41084 ft | 520 kts | 162° |
| 2026-04-25 21:58 | 49.80014 | 12.28034 | 41086 ft | 520 kts | 162° |
| 2026-04-25 21:59 | 49.73333 | 12.32338 | 41080 ft | 523 kts | 152° |
| 2026-04-25 21:59 | 49.68405 | 12.37853 | 41087 ft | 523 kts | 140° |
| 2026-04-25 22:00 | 49.60517 | 12.49395 | 41082 ft | 524 kts | 135° |
| 2026-04-25 22:00 | 49.55323 | 12.57263 | 41086 ft | 524 kts | 136° |
| 2026-04-25 22:01 | 49.50076 | 12.65053 | 41088 ft | 524 kts | 136° |
| 2026-04-25 22:01 | 49.45669 | 12.71515 | 41081 ft | 522 kts | 137° |
| 2026-04-25 22:02 | 49.39553 | 12.80428 | 41080 ft | 521 kts | 137° |
| 2026-04-25 22:02 | 49.34289 | 12.88078 | 41080 ft | 521 kts | 137° |
| 2026-04-25 22:03 | 49.29020 | 12.95715 | 41078 ft | 521 kts | 137° |
| 2026-04-25 22:03 | 49.26384 | 12.99528 | 40957 ft | 518 kts | 137° |
| 2026-04-25 22:03 | 49.23772 | 13.03301 | 40569 ft | 516 kts | 137° |
| 2026-04-25 22:04 | 49.21155 | 13.07075 | 40099 ft | 519 kts | 137° |
| 2026-04-25 22:04 | 49.18518 | 13.10872 | 39672 ft | 521 kts | 137° |
| 2026-04-25 22:04 | 49.15875 | 13.14673 | 39237 ft | 523 kts | 137° |
| 2026-04-25 22:04 | 49.13224 | 13.18478 | 38838 ft | 523 kts | 137° |
| 2026-04-25 22:05 | 49.10571 | 13.22279 | 38384 ft | 524 kts | 137° |
| 2026-04-25 22:05 | 49.07910 | 13.26088 | 37903 ft | 524 kts | 137° |
| 2026-04-25 22:05 | 49.05249 | 13.29890 | 37417 ft | 525 kts | 137° |
| 2026-04-25 22:05 | 49.02579 | 13.33699 | 36987 ft | 526 kts | 137° |
| 2026-04-25 22:06 | 48.99909 | 13.37503 | 36548 ft | 527 kts | 137° |
| 2026-04-25 22:06 | 48.97223 | 13.41324 | 36106 ft | 528 kts | 137° |
| 2026-04-25 22:06 | 48.94541 | 13.45133 | 35639 ft | 528 kts | 137° |
| 2026-04-25 22:06 | 48.91998 | 13.49167 | 35213 ft | 527 kts | 129° |
| 2026-04-25 22:07 | 48.89866 | 13.53687 | 34847 ft | 526 kts | 119° |
| 2026-04-25 22:07 | 48.88739 | 13.56942 | 34639 ft | 525 kts | 112° |
| 2026-04-25 22:07 | 48.87144 | 13.63920 | 34056 ft | 522 kts | 104° |
| 2026-04-25 22:07 | 48.86152 | 13.69218 | 33533 ft | 522 kts | 103° |
| 2026-04-25 22:08 | 48.85170 | 13.74533 | 33015 ft | 523 kts | 103° |
| 2026-04-25 22:08 | 48.84181 | 13.79859 | 32515 ft | 525 kts | 103° |
| 2026-04-25 22:08 | 48.83184 | 13.85191 | 32007 ft | 526 kts | 103° |
| 2026-04-25 22:08 | 48.82181 | 13.90527 | 31531 ft | 527 kts | 103° |
| 2026-04-25 22:09 | 48.81171 | 13.95873 | 31050 ft | 528 kts | 104° |
| 2026-04-25 22:09 | 48.80158 | 14.01219 | 30579 ft | 528 kts | 104° |
| 2026-04-25 22:09 | 48.79140 | 14.06568 | 30122 ft | 524 kts | 104° |
| 2026-04-25 22:09 | 48.78137 | 14.11817 | 29586 ft | 512 kts | 104° |
| 2026-04-25 22:10 | 48.77161 | 14.16908 | 29071 ft | 492 kts | 104° |
| 2026-04-25 22:10 | 48.76222 | 14.21790 | 28574 ft | 473 kts | 104° |
| 2026-04-25 22:10 | 48.75318 | 14.26486 | 28086 ft | 456 kts | 104° |
| 2026-04-25 22:10 | 48.74442 | 14.31027 | 27576 ft | 441 kts | 104° |
| 2026-04-25 22:11 | 48.73594 | 14.35416 | 27114 ft | 427 kts | 103° |
| 2026-04-25 22:11 | 48.72771 | 14.39666 | 26689 ft | 413 kts | 103° |
| 2026-04-25 22:11 | 48.71973 | 14.43782 | 26264 ft | 403 kts | 103° |
| 2026-04-25 22:11 | 48.71186 | 14.47837 | 25862 ft | 400 kts | 103° |
| 2026-04-25 22:12 | 48.70401 | 14.51877 | 25505 ft | 401 kts | 104° |
| 2026-04-25 22:12 | 48.69614 | 14.55913 | 25133 ft | 397 kts | 104° |
| 2026-04-25 22:12 | 48.68833 | 14.59900 | 24779 ft | 394 kts | 104° |
| 2026-04-25 22:12 | 48.68317 | 14.62532 | 24554 ft | 393 kts | 104° |
| 2026-04-25 22:13 | 48.67290 | 14.67759 | 24089 ft | 390 kts | 104° |
| 2026-04-25 22:13 | 48.66509 | 14.71729 | 23736 ft | 388 kts | 104° |
| 2026-04-25 22:13 | 48.65750 | 14.75577 | 23348 ft | 386 kts | 104° |
| 2026-04-25 22:13 | 48.64984 | 14.79452 | 22945 ft | 384 kts | 104° |
| 2026-04-25 22:14 | 48.64219 | 14.83312 | 22553 ft | 382 kts | 104° |
| 2026-04-25 22:14 | 48.63457 | 14.87150 | 22142 ft | 380 kts | 104° |
| 2026-04-25 22:14 | 48.62697 | 14.90969 | 21759 ft | 378 kts | 104° |
| 2026-04-25 22:14 | 48.61943 | 14.94758 | 21365 ft | 376 kts | 104° |
| 2026-04-25 22:15 | 48.61190 | 14.98526 | 20979 ft | 374 kts | 104° |
| 2026-04-25 22:15 | 48.60440 | 15.02275 | 20604 ft | 372 kts | 104° |
| 2026-04-25 22:15 | 48.59692 | 15.06007 | 20230 ft | 370 kts | 105° |
| 2026-04-25 22:16 | 48.58205 | 15.13401 | 19527 ft | 366 kts | 105° |
| 2026-04-25 22:16 | 48.57465 | 15.17074 | 19190 ft | 365 kts | 105° |
| 2026-04-25 22:16 | 48.56726 | 15.20733 | 18861 ft | 363 kts | 105° |
| 2026-04-25 22:16 | 48.55990 | 15.24371 | 18526 ft | 362 kts | 105° |
| 2026-04-25 22:17 | 48.55255 | 15.27997 | 18178 ft | 360 kts | 105° |
| 2026-04-25 22:17 | 48.54521 | 15.31603 | 17807 ft | 359 kts | 105° |
| 2026-04-25 22:17 | 48.53790 | 15.35194 | 17435 ft | 356 kts | 105° |
| 2026-04-25 22:17 | 48.53063 | 15.38752 | 17068 ft | 354 kts | 105° |
| 2026-04-25 22:18 | 48.52340 | 15.42286 | 16777 ft | 351 kts | 105° |
| 2026-04-25 22:18 | 48.51617 | 15.45812 | 16641 ft | 351 kts | 105° |
| 2026-04-25 22:18 | 48.50895 | 15.49329 | 16523 ft | 351 kts | 105° |
| 2026-04-25 22:18 | 48.50175 | 15.52833 | 16391 ft | 350 kts | 105° |
| 2026-04-25 22:19 | 48.49453 | 15.56339 | 16257 ft | 349 kts | 105° |
| 2026-04-25 22:19 | 48.48735 | 15.59820 | 16128 ft | 348 kts | 105° |
| 2026-04-25 22:19 | 48.48015 | 15.63307 | 16006 ft | 348 kts | 105° |
| 2026-04-25 22:19 | 48.47295 | 15.66788 | 15885 ft | 347 kts | 105° |
| 2026-04-25 22:20 | 48.46575 | 15.70263 | 15754 ft | 347 kts | 105° |
| 2026-04-25 22:20 | 48.45856 | 15.73721 | 15636 ft | 347 kts | 106° |
| 2026-04-25 22:20 | 48.45134 | 15.77194 | 15508 ft | 347 kts | 106° |
| 2026-04-25 22:20 | 48.44410 | 15.80667 | 15394 ft | 347 kts | 106° |
| 2026-04-25 22:21 | 48.43696 | 15.84081 | 15269 ft | 347 kts | 106° |
| 2026-04-25 22:21 | 48.42973 | 15.87538 | 15148 ft | 346 kts | 106° |
| 2026-04-25 22:21 | 48.42250 | 15.90990 | 15019 ft | 345 kts | 106° |
| 2026-04-25 22:21 | 48.41526 | 15.94439 | 14863 ft | 345 kts | 106° |
| 2026-04-25 22:22 | 48.40803 | 15.97877 | 14649 ft | 344 kts | 106° |
| 2026-04-25 22:22 | 48.40083 | 16.01298 | 14414 ft | 343 kts | 106° |
| 2026-04-25 22:22 | 48.39362 | 16.04713 | 14202 ft | 342 kts | 106° |
| 2026-04-25 22:22 | 48.38645 | 16.08109 | 13993 ft | 341 kts | 106° |
| 2026-04-25 22:23 | 48.37926 | 16.11505 | 13775 ft | 340 kts | 106° |
| 2026-04-25 22:23 | 48.37211 | 16.14887 | 13529 ft | 338 kts | 106° |
| 2026-04-25 22:23 | 48.36498 | 16.18240 | 13310 ft | 337 kts | 106° |
| 2026-04-25 22:23 | 48.35786 | 16.21590 | 13062 ft | 335 kts | 106° |
| 2026-04-25 22:24 | 48.35076 | 16.24919 | 12828 ft | 334 kts | 107° |
| 2026-04-25 22:24 | 48.34369 | 16.28231 | 12598 ft | 332 kts | 107° |
| 2026-04-25 22:24 | 48.33668 | 16.31513 | 12367 ft | 325 kts | 107° |
| 2026-04-25 22:24 | 48.32985 | 16.34696 | 12142 ft | 316 kts | 107° |
| 2026-04-25 22:25 | 48.32330 | 16.37753 | 11936 ft | 308 kts | 107° |
| 2026-04-25 22:25 | 48.31671 | 16.40821 | 11690 ft | 300 kts | 107° |
| 2026-04-25 22:25 | 48.31035 | 16.43776 | 11477 ft | 293 kts | 107° |
| 2026-04-25 22:25 | 48.30391 | 16.46650 | 11258 ft | 290 kts | 110° |
| 2026-04-25 22:26 | 48.29507 | 16.49374 | 11040 ft | 289 kts | 122° |
| 2026-04-25 22:26 | 48.28273 | 16.51736 | 10831 ft | 287 kts | 136° |
| 2026-04-25 22:26 | 48.26770 | 16.53680 | 10631 ft | 283 kts | 145° |
| 2026-04-25 22:26 | 48.25204 | 16.55444 | 10433 ft | 281 kts | 146° |
| 2026-04-25 22:27 | 48.23634 | 16.57184 | 10240 ft | 280 kts | 146° |
| 2026-04-25 22:27 | 48.22073 | 16.58922 | 10062 ft | 279 kts | 146° |
| 2026-04-25 22:27 | 48.20521 | 16.60659 | 9870 ft | 278 kts | 146° |
| 2026-04-25 22:27 | 48.19043 | 16.62532 | 9638 ft | 279 kts | 137° |
| 2026-04-25 22:28 | 48.17835 | 16.64804 | 9439 ft | 279 kts | 123° |
| 2026-04-25 22:28 | 48.16906 | 16.67356 | 9230 ft | 279 kts | 116° |
| 2026-04-25 22:28 | 48.16056 | 16.69960 | 8991 ft | 278 kts | 116° |
| 2026-04-25 22:28 | 48.15214 | 16.72564 | 8720 ft | 277 kts | 116° |
| 2026-04-25 22:29 | 48.14370 | 16.75151 | 8463 ft | 276 kts | 116° |
| 2026-04-25 22:29 | 48.13525 | 16.77724 | 8212 ft | 275 kts | 116° |
| 2026-04-25 22:29 | 48.12680 | 16.80287 | 7913 ft | 274 kts | 116° |
| 2026-04-25 22:30 | 48.10986 | 16.85397 | 7165 ft | 274 kts | 116° |
| 2026-04-25 22:30 | 48.10138 | 16.87952 | 6777 ft | 274 kts | 116° |
| 2026-04-25 22:30 | 48.09284 | 16.90518 | 6340 ft | 277 kts | 116° |
| 2026-04-25 22:30 | 48.08715 | 16.92228 | 6057 ft | 278 kts | 116° |
| 2026-04-25 22:31 | 48.07563 | 16.95682 | 5541 ft | 277 kts | 116° |
| 2026-04-25 22:31 | 48.06705 | 16.98248 | 5175 ft | 276 kts | 115° |
| 2026-04-25 22:31 | 48.05859 | 17.00776 | 4996 ft | 266 kts | 115° |
| 2026-04-25 22:31 | 48.05043 | 17.03215 | 4977 ft | 262 kts | 115° |
| 2026-04-25 22:32 | 48.04229 | 17.05651 | 4976 ft | 262 kts | 115° |
| 2026-04-25 22:32 | 48.03415 | 17.08082 | 4973 ft | 262 kts | 115° |
| 2026-04-25 22:32 | 48.02600 | 17.10514 | 4973 ft | 262 kts | 115° |
| 2026-04-25 22:32 | 48.01785 | 17.12943 | 4974 ft | 261 kts | 115° |
| 2026-04-25 22:33 | 48.00968 | 17.15371 | 4966 ft | 261 kts | 115° |
| 2026-04-25 22:33 | 48.00146 | 17.17790 | 4974 ft | 261 kts | 115° |
| 2026-04-25 22:33 | 47.99321 | 17.20202 | 4974 ft | 261 kts | 115° |
| 2026-04-25 22:33 | 47.98510 | 17.22585 | 4950 ft | 261 kts | 115° |
| 2026-04-25 22:34 | 47.97687 | 17.25015 | 4582 ft | 262 kts | 115° |
| 2026-04-25 22:34 | 47.96862 | 17.27431 | 4250 ft | 261 kts | 115° |
| 2026-04-25 22:34 | 47.96032 | 17.29824 | 4014 ft | 258 kts | 115° |
| 2026-04-25 22:34 | 47.95105 | 17.32124 | 3962 ft | 261 kts | 130° |
| 2026-04-25 22:35 | 47.93649 | 17.33687 | 3982 ft | 259 kts | 160° |
| 2026-04-25 22:35 | 47.91888 | 17.34045 | 3975 ft | 251 kts | 192° |
| 2026-04-25 22:35 | 47.90315 | 17.33139 | 3976 ft | 238 kts | 222° |
| 2026-04-25 22:35 | 47.89329 | 17.31318 | 3987 ft | 225 kts | 252° |
| 2026-04-25 22:36 | 47.88907 | 17.29112 | 3983 ft | 221 kts | 264° |
| 2026-04-25 22:36 | 47.88631 | 17.26834 | 3980 ft | 220 kts | 265° |
| 2026-04-25 22:36 | 47.88407 | 17.24614 | 3974 ft | 219 kts | 270° |
| 2026-04-25 22:36 | 47.88653 | 17.22430 | 3943 ft | 214 kts | 291° |
| 2026-04-25 22:37 | 47.89238 | 17.20383 | 3594 ft | 214 kts | 297° |
| 2026-04-25 22:37 | 47.89857 | 17.18395 | 3363 ft | 208 kts | 297° |
| 2026-04-25 22:37 | 47.90456 | 17.16479 | 3106 ft | 199 kts | 297° |
| 2026-04-25 22:37 | 47.91035 | 17.14626 | 2987 ft | 197 kts | 297° |
| 2026-04-25 22:38 | 47.91627 | 17.12741 | 2962 ft | 204 kts | 296° |
| 2026-04-25 22:38 | 47.92552 | 17.11155 | 2973 ft | 207 kts | 323° |
| 2026-04-25 22:38 | 47.93586 | 17.09691 | 2979 ft | 206 kts | 307° |
| 2026-04-25 22:38 | 47.94381 | 17.07916 | 2979 ft | 206 kts | 301° |
| 2026-04-25 22:39 | 47.95066 | 17.06042 | 2980 ft | 206 kts | 298° |
| 2026-04-25 22:39 | 47.95700 | 17.04123 | 2981 ft | 206 kts | 297° |
| 2026-04-25 22:39 | 47.96322 | 17.02207 | 2981 ft | 205 kts | 297° |
| 2026-04-25 22:39 | 47.96944 | 17.00300 | 2982 ft | 203 kts | 297° |
| 2026-04-25 22:40 | 47.97540 | 16.98475 | 2988 ft | 188 kts | 298° |
| 2026-04-25 22:40 | 47.98103 | 16.96759 | 3026 ft | 181 kts | 298° |
| 2026-04-25 22:40 | 47.98654 | 16.95079 | 3084 ft | 180 kts | 298° |
| 2026-04-25 22:40 | 47.99206 | 16.93396 | 3088 ft | 182 kts | 298° |
| 2026-04-25 22:41 | 47.99763 | 16.91696 | 3091 ft | 183 kts | 298° |
| 2026-04-25 22:41 | 48.00321 | 16.89988 | 3091 ft | 183 kts | 298° |
| 2026-04-25 22:41 | 48.00879 | 16.88282 | 3091 ft | 183 kts | 298° |
| 2026-04-25 22:41 | 48.01438 | 16.86571 | 3105 ft | 184 kts | 297° |
| 2026-04-25 22:42 | 48.01810 | 16.85432 | 3110 ft | 185 kts | 297° |
| 2026-04-25 22:42 | 48.02374 | 16.83706 | 3112 ft | 185 kts | 297° |
| 2026-04-25 22:42 | 48.02938 | 16.81978 | 3111 ft | 185 kts | 297° |
| 2026-04-25 22:42 | 48.03503 | 16.80250 | 3112 ft | 185 kts | 297° |
| 2026-04-25 22:43 | 48.04068 | 16.78518 | 3113 ft | 186 kts | 297° |
| 2026-04-25 22:43 | 48.04634 | 16.76785 | 3116 ft | 185 kts | 297° |
| 2026-04-25 22:43 | 48.05198 | 16.75056 | 3101 ft | 185 kts | 298° |
| 2026-04-25 22:43 | 48.05748 | 16.73368 | 2906 ft | 176 kts | 298° |
| 2026-04-25 22:44 | 48.06276 | 16.71751 | 2679 ft | 170 kts | 298° |
| 2026-04-25 22:44 | 48.06787 | 16.70185 | 2452 ft | 165 kts | 298° |
| 2026-04-25 22:44 | 48.07285 | 16.68658 | 2218 ft | 161 kts | 298° |
| 2026-04-25 22:44 | 48.07758 | 16.67206 | 2009 ft | 152 kts | 298° |
| 2026-04-25 22:45 | 48.08200 | 16.65854 | 1826 ft | 139 kts | 297° |
| 2026-04-25 22:45 | 48.08615 | 16.64574 | 1638 ft | 136 kts | 297° |
| 2026-04-25 22:45 | 48.09033 | 16.63295 | 1454 ft | 137 kts | 296° |
| 2026-04-25 22:45 | 48.09450 | 16.62019 | 1283 ft | 137 kts | 296° |
| 2026-04-25 22:46 | 48.09872 | 16.60725 | 1093 ft | 140 kts | 295° |
| 2026-04-25 22:46 | 48.10292 | 16.59435 | 909 ft | 133 kts | 295° |
| 2026-04-25 22:46 | 48.10679 | 16.58245 | 741 ft | 123 kts | 295° |
| 2026-04-25 22:46 | 48.11043 | 16.57124 | 641 ft | 115 kts | 296° |
| 2026-04-25 22:47 | 48.11357 | 16.56164 | 628 ft | 93 kts | 296° |
| 2026-04-25 22:47 | 48.11584 | 16.55489 | 633 ft | 51 kts | 303° |
| 2026-04-25 22:47 | 48.11870 | 16.55118 | 620 ft | 50 kts | 352° |
| 2026-04-25 22:47 | 48.12183 | 16.55180 | 621 ft | 39 kts | 41° |
| 2026-04-25 22:48 | 48.12227 | 16.55341 | 600 ft | 0 kts | 63° |